Observation data for Estelline on 08/14/2019      Previous  Date  Next       Current Mesonet Observations  Soil Data  Daily Summary Page  Observations in Plain Language
KES1 140500Z 09005KT 26/21 A3006 RMK A01 T02590206  RH  073%=      5-min Rain = 0
KES1 140501Z 09005KT 26/21 A3006 RMK A01 T02580206  RH  073%=      5-min Rain = 0
KES1 140502Z 09005KT 26/21 A3007 RMK A01 T02580206  RH  073%=      5-min Rain = 0
KES1 140503Z 09005KT 26/21 A3007 RMK A01 T02580205  RH  072%=      5-min Rain = 0
KES1 140504Z 08005KT 26/21 A3007 RMK A01 T02580205  RH  073%=      5-min Rain = 0
KES1 140505Z 07005KT 26/21 A3007 RMK A01 T02590205  RH  072%=      5-min Rain = 0
KES1 140506Z 07006KT 26/21 A3007 RMK A01 T02590205  RH  072%=      5-min Rain = 0
KES1 140507Z 07005KT 26/21 A3007 RMK A01 T02590205  RH  072%=      5-min Rain = 0
KES1 140508Z 07005KT 26/21 A3007 RMK A01 T02590205  RH  072%=      5-min Rain = 0
KES1 140509Z 06005KT 26/21 A3007 RMK A01 T02590205  RH  072%=      5-min Rain = 0
KES1 140510Z 06005KT 26/21 A3007 RMK A01 T02600206  RH  072%=      5-min Rain = 0
KES1 140519Z 05006KT 25/21 A3008 RMK A01 T02540208  RH  075%=      5-min Rain = 0
KES1 140520Z 04006KT 25/21 A3008 RMK A01 T02530208  RH  076%=      5-min Rain = 0
KES1 140521Z 04005KT 25/21 A3008 RMK A01 T02530208  RH  076%=      5-min Rain = 0
KES1 140522Z 04005KT 25/21 A3009 RMK A01 T02520209  RH  077%=      5-min Rain = 0
KES1 140523Z 04006KT 25/21 A3009 RMK A01 T02520209  RH  077%=      5-min Rain = 0
KES1 140524Z 04006KT 25/21 A3009 RMK A01 T02510209  RH  077%=      5-min Rain = 0
KES1 140525Z 04006KT 25/21 A3009 RMK A01 T02510209  RH  078%=      5-min Rain = 0
KES1 140526Z 04005KT 25/21 A3009 RMK A01 T02510210  RH  078%=      5-min Rain = 0
KES1 140527Z 04006KT 25/21 A3009 RMK A01 T02500210  RH  078%=      5-min Rain = 0
KES1 140528Z 04006KT 25/21 A3009 RMK A01 T02500210  RH  078%=      5-min Rain = 0
KES1 140529Z 04007KT 25/21 A301 RMK A01 T02500210  RH  078%=      5-min Rain = 0
KES1 140530Z 05006KT 25/21 A301 RMK A01 T02500210  RH  079%=      5-min Rain = 0
KES1 140531Z 05006KT 25/21 A301 RMK A01 T02490210  RH  079%=      5-min Rain = 0
KES1 140532Z 04006KT 25/21 A301 RMK A01 T02490210  RH  079%=      5-min Rain = 0
KES1 140533Z 05007KT 25/21 A301 RMK A01 T02490210  RH  079%=      5-min Rain = 0
KES1 140534Z 05007KT 25/21 A301 RMK A01 T02490210  RH  079%=      5-min Rain = 0
KES1 140535Z 05007KT 25/21 A301 RMK A01 T02490210  RH  079%=      5-min Rain = 0
KES1 140536Z 04006KT 25/21 A301 RMK A01 T02490210  RH  079%=      5-min Rain = 0
KES1 140537Z 05007KT 25/21 A301 RMK A01 T02490210  RH  079%=      5-min Rain = 0
KES1 140538Z 05007KT 25/21 A301 RMK A01 T02500210  RH  078%=      5-min Rain = 0
KES1 140539Z 05007KT 25/21 A301 RMK A01 T02500209  RH  078%=      5-min Rain = 0
KES1 140540Z 06006KT 25/21 A301 RMK A01 T02500210  RH  078%=      5-min Rain = 0
KES1 140541Z 06005KT 25/21 A301 RMK A01 T02500210  RH  078%=      5-min Rain = 0
KES1 140542Z 07005KT 25/21 A301 RMK A01 T02500210  RH  078%=      5-min Rain = 0
KES1 140543Z 07005KT 25/21 A301 RMK A01 T02500209  RH  078%=      5-min Rain = 0
KES1 140544Z 08005KT 25/21 A301 RMK A01 T02490209  RH  078%=      5-min Rain = 0
KES1 140545Z 08004KT 25/21 A301 RMK A01 T02500208  RH  078%=      5-min Rain = 0
KES1 140546Z 08004KT 25/21 A301 RMK A01 T02490208  RH  078%=      5-min Rain = 0
KES1 140547Z 08004KT 25/21 A301 RMK A01 T02500208  RH  078%=      5-min Rain = 0
KES1 140548Z 07004KT 25/21 A301 RMK A01 T02490208  RH  078%=      5-min Rain = 0
KES1 140549Z 07005KT 25/21 A301 RMK A01 T02490208  RH  078%=      5-min Rain = 0
KES1 140550Z 07005KT 25/21 A301 RMK A01 T02490207  RH  077%=      5-min Rain = 0
KES1 140551Z 06005KT 25/21 A301 RMK A01 T02490207  RH  077%=      5-min Rain = 0
KES1 140552Z 06005KT 25/21 A301 RMK A01 T02490207  RH  078%=      5-min Rain = 0
KES1 140553Z 05005KT 25/21 A301 RMK A01 T02490208  RH  078%=      5-min Rain = 0
KES1 140554Z 05005KT 25/21 A301 RMK A01 T02490208  RH  078%=      5-min Rain = 0
KES1 140555Z 05005KT 25/21 A301 RMK A01 T02490207  RH  078%=      5-min Rain = 0
KES1 140556Z 05005KT 25/21 A301 RMK A01 T02490208  RH  078%=      5-min Rain = 0
KES1 140557Z 05005KT 25/21 A301 RMK A01 T02490208  RH  078%=      5-min Rain = 0
KES1 140558Z 04005KT 25/21 A301 RMK A01 T02480208  RH  078%=      5-min Rain = 0
KES1 140559Z 05005KT 25/21 A3011 RMK A01 T02490208  RH  078%=      5-min Rain = 0
KES1 140600Z 05005KT 25/21 A3011 RMK A01 T02480208  RH  079%=      5-min Rain = 0
KES1 140601Z 05005KT 25/21 A3011 RMK A01 T02480208  RH  079%=      5-min Rain = 0
KES1 140602Z 05006KT 25/21 A3011 RMK A01 T02480208  RH  079%=      5-min Rain = 0
KES1 140603Z 04006KT 25/21 A3011 RMK A01 T02480209  RH  079%=      5-min Rain = 0
KES1 140604Z 04006KT 25/21 A3011 RMK A01 T02480208  RH  079%=      5-min Rain = 0
KES1 140605Z 04007KT 25/21 A3011 RMK A01 T02480207  RH  078%=      5-min Rain = 0
KES1 140606Z 04007KT 25/21 A3011 RMK A01 T02490208  RH  078%=      5-min Rain = 0
KES1 140607Z 04007KT 25/21 A3011 RMK A01 T02500208  RH  078%=      5-min Rain = 0
KES1 140608Z 04007KT 25/21 A3011 RMK A01 T02500207  RH  077%=      5-min Rain = 0
KES1 140609Z 04007KT 25/21 A3011 RMK A01 T02500208  RH  077%=      5-min Rain = 0
KES1 140610Z 04006KT 25/21 A3011 RMK A01 T02500207  RH  077%=      5-min Rain = 0
KES1 140611Z 05007KT 25/21 A3011 RMK A01 T02510207  RH  077%=      5-min Rain = 0
KES1 140612Z 05007KT 25/21 A3011 RMK A01 T02510207  RH  077%=      5-min Rain = 0
KES1 140613Z 04007KT 25/21 A3011 RMK A01 T02510207  RH  077%=      5-min Rain = 0
KES1 140614Z 05007KT 25/21 A3011 RMK A01 T02510207  RH  077%=      5-min Rain = 0
KES1 140615Z 05005KT 25/21 A3011 RMK A01 T02510207  RH  077%=      5-min Rain = 0
KES1 140616Z 05006KT 25/21 A3011 RMK A01 T02510207  RH  077%=      5-min Rain = 0
KES1 140617Z 06006KT 25/21 A3011 RMK A01 T02510207  RH  077%=      5-min Rain = 0
KES1 140618Z 06006KT 25/21 A3011 RMK A01 T02500207  RH  077%=      5-min Rain = 0
KES1 140619Z 06005KT 25/21 A3011 RMK A01 T02500207  RH  077%=      5-min Rain = 0
KES1 140620Z 06005KT 25/21 A3011 RMK A01 T02500207  RH  077%=      5-min Rain = 0
KES1 140621Z 06005KT 25/21 A3011 RMK A01 T02500207  RH  077%=      5-min Rain = 0
KES1 140622Z 06006KT 25/21 A3011 RMK A01 T02490207  RH  077%=      5-min Rain = 0
KES1 140623Z 06005KT 25/21 A3011 RMK A01 T02490207  RH  077%=      5-min Rain = 0
KES1 140624Z 06005KT 25/21 A3011 RMK A01 T02490207  RH  077%=      5-min Rain = 0
KES1 140625Z 07005KT 25/21 A3011 RMK A01 T02490207  RH  078%=      5-min Rain = 0
KES1 140626Z 07005KT 25/21 A301 RMK A01 T02480206  RH  078%=      5-min Rain = 0
KES1 140627Z 07005KT 25/21 A301 RMK A01 T02480207  RH  078%=      5-min Rain = 0
KES1 140628Z 08004KT 25/21 A301 RMK A01 T02470206  RH  078%=      5-min Rain = 0
KES1 140629Z 08004KT 25/21 A301 RMK A01 T02470207  RH  078%=      5-min Rain = 0
KES1 140630Z 08004KT 25/21 A301 RMK A01 T02470206  RH  078%=      5-min Rain = 0
KES1 140631Z 08004KT 25/21 A301 RMK A01 T02470206  RH  078%=      5-min Rain = 0
KES1 140632Z 08004KT 25/21 A301 RMK A01 T02470206  RH  078%=      5-min Rain = 0
KES1 140633Z 08004KT 25/21 A301 RMK A01 T02460207  RH  078%=      5-min Rain = 0
KES1 140634Z 08003KT 25/21 A301 RMK A01 T02460206  RH  079%=      5-min Rain = 0
KES1 140635Z 08003KT 25/21 A301 RMK A01 T02460206  RH  079%=      5-min Rain = 0
KES1 140636Z 09004KT 25/21 A301 RMK A01 T02450206  RH  079%=      5-min Rain = 0
KES1 140637Z 08003KT 25/21 A301 RMK A01 T02450206  RH  079%=      5-min Rain = 0
KES1 140638Z 09003KT 25/21 A301 RMK A01 T02450206  RH  079%=      5-min Rain = 0
KES1 140639Z 08003KT 25/21 A3009 RMK A01 T02450207  RH  079%=      5-min Rain = 0
KES1 140640Z 08003KT 25/21 A3009 RMK A01 T02450207  RH  079%=      5-min Rain = 0
KES1 140641Z 08003KT 25/21 A3009 RMK A01 T02450207  RH  079%=      5-min Rain = 0
KES1 140642Z 08003KT 25/21 A3009 RMK A01 T02450207  RH  079%=      5-min Rain = 0
KES1 140643Z 08003KT 25/21 A3009 RMK A01 T02450207  RH  079%=      5-min Rain = 0
KES1 140644Z 08003KT 25/21 A3009 RMK A01 T02450207  RH  080%=      5-min Rain = 0
KES1 140645Z 08003KT 24/21 A3009 RMK A01 T02440207  RH  080%=      5-min Rain = 0
KES1 140646Z 08003KT 24/21 A3009 RMK A01 T02440207  RH  080%=      5-min Rain = 0
KES1 140647Z 08003KT 24/21 A3009 RMK A01 T02440207  RH  080%=      5-min Rain = 0
KES1 140648Z 08004KT 24/21 A3009 RMK A01 T02440207  RH  080%=      5-min Rain = 0
KES1 140649Z 08004KT 24/21 A3009 RMK A01 T02440207  RH  080%=      5-min Rain = 0
KES1 140650Z 08004KT 24/21 A3009 RMK A01 T02440207  RH  080%=      5-min Rain = 0
KES1 140651Z 08004KT 24/21 A3009 RMK A01 T02440207  RH  080%=      5-min Rain = 0
KES1 140652Z 07004KT 24/21 A3009 RMK A01 T02440207  RH  080%=      5-min Rain = 0
KES1 140653Z 06004KT 24/21 A3009 RMK A01 T02440207  RH  080%=      5-min Rain = 0
KES1 140654Z 05004KT 24/21 A3009 RMK A01 T02430207  RH  080%=      5-min Rain = 0
KES1 140655Z 03005KT 24/21 A3009 RMK A01 T02430207  RH  080%=      5-min Rain = 0
KES1 140656Z 01008KT 24/21 A301 RMK A01 T02430208  RH  081%=      5-min Rain = 0
KES1 140657Z 01010KT 24/21 A301 RMK A01 T02430208  RH  081%=      5-min Rain = 0
KES1 140658Z 01009KT 24/21 A301 RMK A01 T02420208  RH  081%=      5-min Rain = 0
KES1 140659Z 02008KT 24/21 A301 RMK A01 T02410208  RH  081%=      5-min Rain = 0
KES1 140700Z 03008KT 24/21 A301 RMK A01 T02420207  RH  081%=      5-min Rain = 0
KES1 140701Z 04008KT 24/21 A301 RMK A01 T02420206  RH  081%=      5-min Rain = 0
KES1 140702Z 04008KT 24/21 A301 RMK A01 T02420206  RH  080%=      5-min Rain = 0
KES1 140703Z 02009KT 24/21 A301 RMK A01 T02420206  RH  080%=      5-min Rain = 0
KES1 140704Z 02010KT 24/21 A301 RMK A01 T02430205  RH  079%=      5-min Rain = 0
KES1 140705Z 02007KT 24/21 A301 RMK A01 T02440205  RH  079%=      5-min Rain = 0
KES1 140706Z 02008KT 25/20 A301 RMK A01 T02450204  RH  078%=      5-min Rain = 0
KES1 140707Z 03008KT 25/20 A301 RMK A01 T02450204  RH  078%=      5-min Rain = 0
KES1 140708Z 03009KT 25/20 A301 RMK A01 T02450204  RH  078%=      5-min Rain = 0
KES1 140709Z 03009KT 25/20 A301 RMK A01 T02450202  RH  077%=      5-min Rain = 0
KES1 140710Z 02009KT 25/20 A301 RMK A01 T02460202  RH  077%=      5-min Rain = 0
KES1 140711Z 03007KT 25/20 A301 RMK A01 T02460201  RH  076%=      5-min Rain = 0
KES1 140712Z 03008KT 25/20 A301 RMK A01 T02460201  RH  076%=      5-min Rain = 0
KES1 140713Z 04008KT 25/20 A301 RMK A01 T02460201  RH  076%=      5-min Rain = 0
KES1 140714Z 04006KT 25/20 A3009 RMK A01 T02450201  RH  076%=      5-min Rain = 0
KES1 140715Z 04007KT 25/20 A3009 RMK A01 T02450201  RH  076%=      5-min Rain = 0
KES1 140716Z 04006KT 25/20 A3009 RMK A01 T02460201  RH  076%=      5-min Rain = 0
KES1 140717Z 04005KT 25/20 A3009 RMK A01 T02450201  RH  076%=      5-min Rain = 0
KES1 140718Z 04005KT 25/20 A3009 RMK A01 T02450201  RH  077%=      5-min Rain = 0
KES1 140719Z 03006KT 24/20 A3009 RMK A01 T02440201  RH  077%=      5-min Rain = 0
KES1 140720Z 03007KT 24/20 A3009 RMK A01 T02440200  RH  077%=      5-min Rain = 0
KES1 140721Z 02007KT 24/20 A3009 RMK A01 T02430200  RH  077%=      5-min Rain = 0
KES1 140722Z 03006KT 24/20 A3009 RMK A01 T02430200  RH  077%=      5-min Rain = 0
KES1 140723Z 03005KT 24/20 A3009 RMK A01 T02430200  RH  077%=      5-min Rain = 0
KES1 140724Z 03005KT 24/20 A3009 RMK A01 T02430200  RH  077%=      5-min Rain = 0
KES1 140725Z 02006KT 24/20 A3009 RMK A01 T02430200  RH  077%=      5-min Rain = 0
KES1 140726Z 02006KT 24/20 A3009 RMK A01 T02430199  RH  077%=      5-min Rain = 0
KES1 140727Z 02007KT 24/20 A301 RMK A01 T02430199  RH  076%=      5-min Rain = 0
KES1 140728Z 03007KT 24/20 A301 RMK A01 T02430198  RH  076%=      5-min Rain = 0
KES1 140729Z 03006KT 24/20 A301 RMK A01 T02430198  RH  076%=      5-min Rain = 0
KES1 140730Z 03006KT 24/20 A3009 RMK A01 T02430198  RH  076%=      5-min Rain = 0
KES1 140731Z 03005KT 24/20 A3009 RMK A01 T02430198  RH  076%=      5-min Rain = 0
KES1 140732Z 03006KT 24/20 A3009 RMK A01 T02420198  RH  076%=      5-min Rain = 0
KES1 140733Z 03006KT 24/20 A3009 RMK A01 T02420198  RH  076%=      5-min Rain = 0
KES1 140734Z 03006KT 24/20 A3009 RMK A01 T02420197  RH  076%=      5-min Rain = 0
KES1 140735Z 03005KT 24/20 A3009 RMK A01 T02410197  RH  076%=      5-min Rain = 0
KES1 140736Z 03006KT 24/20 A301 RMK A01 T02400197  RH  077%=      5-min Rain = 0
KES1 140737Z 03007KT 24/20 A3009 RMK A01 T02400197  RH  077%=      5-min Rain = 0
KES1 140738Z 04008KT 24/19 A3009 RMK A01 T02400194  RH  075%=      5-min Rain = 0
KES1 140739Z 03007KT 24/19 A3009 RMK A01 T02400192  RH  075%=      5-min Rain = 0
KES1 140740Z 03007KT 24/19 A3009 RMK A01 T02400192  RH  074%=      5-min Rain = 0
KES1 140741Z 03007KT 24/19 A3009 RMK A01 T02400191  RH  074%=      5-min Rain = 0
KES1 140742Z 03008KT 24/19 A3009 RMK A01 T02400190  RH  074%=      5-min Rain = 0
KES1 140743Z 03009KT 24/19 A301 RMK A01 T02390188  RH  073%=      5-min Rain = 0
KES1 140744Z 03009KT 24/19 A301 RMK A01 T02380186  RH  072%=      5-min Rain = 0
KES1 140745Z 03010KT 24/18 A3009 RMK A01 T02380184  RH  072%=      5-min Rain = 0
KES1 140746Z 03011KT 24/18 A3009 RMK A01 T02380181  RH  071%=      5-min Rain = 0
KES1 140747Z 03009KT 24/18 A3009 RMK A01 T02380181  RH  071%=      5-min Rain = 0
KES1 140748Z 03009KT 24/18 A301 RMK A01 T02370181  RH  071%=      5-min Rain = 0
KES1 140749Z 03010KT 24/18 A301 RMK A01 T02360181  RH  071%=      5-min Rain = 0
KES1 140750Z 03010KT 24/18 A301 RMK A01 T02360181  RH  071%=      5-min Rain = 0
KES1 140751Z 03009KT 24/18 A301 RMK A01 T02350181  RH  071%=      5-min Rain = 0
KES1 140752Z 03008KT 24/18 A301 RMK A01 T02350181  RH  071%=      5-min Rain = 0
KES1 140753Z 03007KT 24/18 A301 RMK A01 T02350181  RH  072%=      5-min Rain = 0
KES1 140754Z 02007KT 23/18 A301 RMK A01 T02340181  RH  072%=      5-min Rain = 0
KES1 140755Z 03005KT 23/18 A301 RMK A01 T02330181  RH  073%=      5-min Rain = 0
KES1 140756Z 03006KT 23/18 A301 RMK A01 T02330182  RH  073%=      5-min Rain = 0
KES1 140757Z 02008KT 23/18 A301 RMK A01 T02320181  RH  073%=      5-min Rain = 0
KES1 140758Z 01008KT 23/18 A301 RMK A01 T02320180  RH  073%=      5-min Rain = 0
KES1 140759Z 02009KT 23/18 A301 RMK A01 T02320180  RH  073%=      5-min Rain = 0
KES1 140800Z 02008KT 23/18 A301 RMK A01 T02320179  RH  072%=      5-min Rain = 0
KES1 140801Z 01008KT 23/18 A301 RMK A01 T02320179  RH  072%=      5-min Rain = 0
KES1 140802Z 01008KT 23/18 A301 RMK A01 T02320179  RH  072%=      5-min Rain = 0
KES1 140803Z 02010G16KT 23/18 A301 RMK A01 T02310176  RH  071%=      5-min Rain = 0
KES1 140804Z 02013KT 23/17 A301 RMK A01 T02310173  RH  069%=      5-min Rain = 0
KES1 140805Z 01012KT 23/17 A301 RMK A01 T02310171  RH  069%=      5-min Rain = 0
KES1 140806Z 02009KT 23/17 A301 RMK A01 T02310171  RH  069%=      5-min Rain = 0
KES1 140807Z 02010G15KT 23/17 A301 RMK A01 T02310170  RH  069%=      5-min Rain = 0
KES1 140808Z 02010KT 23/17 A301 RMK A01 T02300168  RH  068%=      5-min Rain = 0
KES1 140809Z 02010KT 23/17 A301 RMK A01 T02300168  RH  068%=      5-min Rain = 0
KES1 140810Z 03008KT 23/17 A301 RMK A01 T02290167  RH  068%=      5-min Rain = 0
KES1 140811Z 03009KT 23/17 A301 RMK A01 T02290168  RH  069%=      5-min Rain = 0
KES1 140812Z 03009KT 23/17 A301 RMK A01 T02280167  RH  068%=      5-min Rain = 0
KES1 140813Z 03008KT 23/17 A301 RMK A01 T02280167  RH  069%=      5-min Rain = 0
KES1 140814Z 03009KT 23/17 A301 RMK A01 T02270167  RH  069%=      5-min Rain = 0
KES1 140815Z 03008KT 23/17 A301 RMK A01 T02270167  RH  069%=      5-min Rain = 0
KES1 140816Z 03007KT 23/17 A301 RMK A01 T02270167  RH  069%=      5-min Rain = 0
KES1 140817Z 03008KT 23/17 A301 RMK A01 T02260167  RH  069%=      5-min Rain = 0
KES1 140818Z 03009KT 23/17 A301 RMK A01 T02260167  RH  069%=      5-min Rain = 0
KES1 140819Z 04008KT 23/17 A301 RMK A01 T02260166  RH  069%=      5-min Rain = 0
KES1 140820Z 04009KT 23/17 A301 RMK A01 T02250166  RH  069%=      5-min Rain = 0
KES1 140821Z 04009KT 23/17 A301 RMK A01 T02250166  RH  069%=      5-min Rain = 0
KES1 140822Z 04010KT 23/17 A301 RMK A01 T02250165  RH  069%=      5-min Rain = 0
KES1 140823Z 04008KT 22/17 A301 RMK A01 T02240165  RH  069%=      5-min Rain = 0
KES1 140824Z 04008KT 22/17 A301 RMK A01 T02240166  RH  069%=      5-min Rain = 0
KES1 140825Z 04008KT 22/17 A301 RMK A01 T02240166  RH  070%=      5-min Rain = 0
KES1 140826Z 04006KT 22/17 A301 RMK A01 T02230166  RH  070%=      5-min Rain = 0
KES1 140827Z 04007KT 22/17 A301 RMK A01 T02230166  RH  070%=      5-min Rain = 0
KES1 140828Z 04006KT 22/17 A301 RMK A01 T02220166  RH  071%=      5-min Rain = 0
KES1 140829Z 04006KT 22/17 A301 RMK A01 T02210166  RH  071%=      5-min Rain = 0
KES1 140830Z 04006KT 22/17 A301 RMK A01 T02210166  RH  071%=      5-min Rain = 0
KES1 140831Z 04006KT 22/17 A301 RMK A01 T02210166  RH  071%=      5-min Rain = 0
KES1 140832Z 04006KT 22/17 A301 RMK A01 T02200166  RH  071%=      5-min Rain = 0
KES1 140833Z 03005KT 22/17 A301 RMK A01 T02190166  RH  072%=      5-min Rain = 0
KES1 140834Z 03005KT 22/17 A301 RMK A01 T02190166  RH  072%=      5-min Rain = 0
KES1 140835Z 04006KT 22/17 A301 RMK A01 T02190166  RH  072%=      5-min Rain = 0
KES1 140836Z 04006KT 22/17 A301 RMK A01 T02190166  RH  072%=      5-min Rain = 0
KES1 140837Z 03005KT 22/17 A301 RMK A01 T02190167  RH  072%=      5-min Rain = 0
KES1 140838Z 03005KT 22/17 A301 RMK A01 T02180167  RH  073%=      5-min Rain = 0
KES1 140839Z 02006KT 22/17 A301 RMK A01 T02180166  RH  072%=      5-min Rain = 0
KES1 140840Z 02005KT 22/17 A301 RMK A01 T02180166  RH  072%=      5-min Rain = 0
KES1 140841Z 03006KT 22/17 A301 RMK A01 T02180166  RH  072%=      5-min Rain = 0
KES1 140842Z 03007KT 22/17 A301 RMK A01 T02170166  RH  072%=      5-min Rain = 0
KES1 140843Z 03006KT 22/17 A301 RMK A01 T02170165  RH  072%=      5-min Rain = 0
KES1 140844Z 03007KT 22/17 A3011 RMK A01 T02170166  RH  072%=      5-min Rain = 0
KES1 140845Z 03006KT 22/17 A3011 RMK A01 T02170165  RH  072%=      5-min Rain = 0
KES1 140846Z 03005KT 22/17 A3011 RMK A01 T02170166  RH  073%=      5-min Rain = 0
KES1 140847Z 03007KT 22/17 A3011 RMK A01 T02160165  RH  072%=      5-min Rain = 0
KES1 140848Z 03007KT 22/17 A3011 RMK A01 T02170165  RH  072%=      5-min Rain = 0
KES1 140849Z 03007KT 22/16 A3011 RMK A01 T02160164  RH  072%=      5-min Rain = 0
KES1 140850Z 04008KT 22/17 A3011 RMK A01 T02160165  RH  072%=      5-min Rain = 0
KES1 140851Z 04007KT 22/17 A3011 RMK A01 T02160165  RH  072%=      5-min Rain = 0
KES1 140852Z 03008KT 22/17 A3011 RMK A01 T02160165  RH  073%=      5-min Rain = 0
KES1 140853Z 04008KT 22/17 A3011 RMK A01 T02160165  RH  073%=      5-min Rain = 0
KES1 140854Z 03008KT 22/16 A3011 RMK A01 T02150164  RH  073%=      5-min Rain = 0
KES1 140855Z 04009KT 22/16 A3011 RMK A01 T02160164  RH  072%=      5-min Rain = 0
KES1 140856Z 04008KT 22/16 A3011 RMK A01 T02160164  RH  072%=      5-min Rain = 0
KES1 140857Z 04007KT 22/16 A3011 RMK A01 T02150164  RH  073%=      5-min Rain = 0
KES1 140858Z 04008KT 22/16 A3011 RMK A01 T02150163  RH  072%=      5-min Rain = 0
KES1 140859Z 04007KT 22/16 A3011 RMK A01 T02150164  RH  073%=      5-min Rain = 0
KES1 140900Z 04007KT 21/16 A3011 RMK A01 T02140164  RH  073%=      5-min Rain = 0
KES1 140901Z 04006KT 21/16 A3011 RMK A01 T02140163  RH  073%=      5-min Rain = 0
KES1 140902Z 04006KT 21/16 A3011 RMK A01 T02140163  RH  073%=      5-min Rain = 0
KES1 140903Z 03008KT 21/16 A3011 RMK A01 T02140164  RH  073%=      5-min Rain = 0
KES1 140904Z 04007KT 21/16 A3011 RMK A01 T02140163  RH  073%=      5-min Rain = 0
KES1 140905Z 04009KT 21/16 A3011 RMK A01 T02130163  RH  073%=      5-min Rain = 0
KES1 140906Z 03007KT 21/16 A3011 RMK A01 T02130163  RH  073%=      5-min Rain = 0
KES1 140907Z 03007KT 21/16 A3012 RMK A01 T02130163  RH  073%=      5-min Rain = 0
KES1 140908Z 04007KT 21/16 A3012 RMK A01 T02130163  RH  073%=      5-min Rain = 0
KES1 140909Z 04006KT 21/16 A3011 RMK A01 T02130163  RH  073%=      5-min Rain = 0
KES1 140910Z 04005KT 21/16 A3011 RMK A01 T02120163  RH  074%=      5-min Rain = 0
KES1 140911Z 04005KT 21/16 A3011 RMK A01 T02120164  RH  074%=      5-min Rain = 0
KES1 140912Z 04007KT 21/16 A3011 RMK A01 T02110164  RH  074%=      5-min Rain = 0
KES1 140913Z 04008KT 21/16 A3012 RMK A01 T02110164  RH  074%=      5-min Rain = 0
KES1 140914Z 04008KT 21/16 A3012 RMK A01 T02110163  RH  074%=      5-min Rain = 0
KES1 140915Z 04009KT 21/16 A3012 RMK A01 T02110163  RH  074%=      5-min Rain = 0
KES1 140916Z 03008KT 21/16 A3012 RMK A01 T02110163  RH  074%=      5-min Rain = 0
KES1 140917Z 03008KT 21/16 A3012 RMK A01 T02110163  RH  074%=      5-min Rain = 0
KES1 140918Z 03007KT 21/16 A3012 RMK A01 T02110163  RH  074%=      5-min Rain = 0
KES1 140919Z 03008KT 21/16 A3012 RMK A01 T02110164  RH  074%=      5-min Rain = 0
KES1 140920Z 03007KT 21/16 A3012 RMK A01 T02110164  RH  074%=      5-min Rain = 0
KES1 140921Z 02008KT 21/16 A3012 RMK A01 T02110164  RH  074%=      5-min Rain = 0
KES1 140922Z 03007KT 21/16 A3012 RMK A01 T02100164  RH  075%=      5-min Rain = 0
KES1 140923Z 03007KT 21/16 A3012 RMK A01 T02100164  RH  075%=      5-min Rain = 0
KES1 140924Z 03008KT 21/16 A3012 RMK A01 T02100164  RH  075%=      5-min Rain = 0
KES1 140925Z 02008KT 21/16 A3012 RMK A01 T02100164  RH  075%=      5-min Rain = 0
KES1 140926Z 03007KT 21/16 A3012 RMK A01 T02100164  RH  075%=      5-min Rain = 0
KES1 140927Z 02007KT 21/17 A3012 RMK A01 T02100165  RH  075%=      5-min Rain = 0
KES1 140928Z 02007KT 21/16 A3012 RMK A01 T02100164  RH  075%=      5-min Rain = 0
KES1 140929Z 02007KT 21/16 A3012 RMK A01 T02090164  RH  075%=      5-min Rain = 0
KES1 140930Z 03007KT 21/16 A3012 RMK A01 T02090164  RH  075%=      5-min Rain = 0
KES1 140931Z 02006KT 21/16 A3012 RMK A01 T02090164  RH  075%=      5-min Rain = 0
KES1 140932Z 03006KT 21/17 A3012 RMK A01 T02100165  RH  075%=      5-min Rain = 0
KES1 140933Z 02008KT 21/16 A3012 RMK A01 T02090164  RH  075%=      5-min Rain = 0
KES1 140934Z 03007KT 21/16 A3012 RMK A01 T02090164  RH  075%=      5-min Rain = 0
KES1 140935Z 03007KT 21/16 A3012 RMK A01 T02090164  RH  076%=      5-min Rain = 0
KES1 140936Z 03008KT 21/16 A3012 RMK A01 T02090163  RH  075%=      5-min Rain = 0
KES1 140937Z 03008KT 21/16 A3012 RMK A01 T02090164  RH  075%=      5-min Rain = 0
KES1 140938Z 03008KT 21/16 A3012 RMK A01 T02090164  RH  076%=      5-min Rain = 0
KES1 140939Z 02007KT 21/16 A3013 RMK A01 T02090164  RH  076%=      5-min Rain = 0
KES1 140940Z 02007KT 21/16 A3012 RMK A01 T02090164  RH  076%=      5-min Rain = 0
KES1 140941Z 03006KT 21/16 A3012 RMK A01 T02090164  RH  076%=      5-min Rain = 0
KES1 140942Z 02006KT 21/17 A3012 RMK A01 T02090165  RH  076%=      5-min Rain = 0
KES1 140943Z 02007KT 21/17 A3013 RMK A01 T02080165  RH  076%=      5-min Rain = 0
KES1 140944Z 02007KT 21/16 A3013 RMK A01 T02080164  RH  076%=      5-min Rain = 0
KES1 140945Z 02006KT 21/17 A3013 RMK A01 T02080165  RH  076%=      5-min Rain = 0
KES1 140946Z 03008KT 21/17 A3013 RMK A01 T02080165  RH  076%=      5-min Rain = 0
KES1 140947Z 02007KT 21/17 A3013 RMK A01 T02080165  RH  076%=      5-min Rain = 0
KES1 140948Z 03007KT 21/16 A3013 RMK A01 T02080164  RH  076%=      5-min Rain = 0
KES1 140949Z 02006KT 21/17 A3013 RMK A01 T02080165  RH  076%=      5-min Rain = 0
KES1 140950Z 03008KT 21/17 A3013 RMK A01 T02080165  RH  076%=      5-min Rain = 0
KES1 140951Z 02007KT 21/17 A3013 RMK A01 T02070165  RH  076%=      5-min Rain = 0
KES1 140952Z 02006KT 21/17 A3013 RMK A01 T02080165  RH  076%=      5-min Rain = 0
KES1 140953Z 03005KT 21/17 A3013 RMK A01 T02080165  RH  077%=      5-min Rain = 0
KES1 140954Z 03006KT 21/17 A3013 RMK A01 T02070165  RH  077%=      5-min Rain = 0
KES1 140955Z 03005KT 21/17 A3013 RMK A01 T02070165  RH  077%=      5-min Rain = 0
KES1 140956Z 03005KT 21/17 A3013 RMK A01 T02070166  RH  077%=      5-min Rain = 0
KES1 140957Z 03006KT 21/17 A3013 RMK A01 T02070166  RH  077%=      5-min Rain = 0
KES1 140958Z 02006KT 21/17 A3013 RMK A01 T02060166  RH  077%=      5-min Rain = 0
KES1 140959Z 03007KT 21/17 A3013 RMK A01 T02060166  RH  078%=      5-min Rain = 0
KES1 141000Z 02007KT 21/17 A3013 RMK A01 T02060166  RH  078%=      5-min Rain = 0
KES1 141001Z 02006KT 21/17 A3013 RMK A01 T02060166  RH  078%=      5-min Rain = 0
KES1 141002Z 02008KT 21/17 A3013 RMK A01 T02060166  RH  078%=      5-min Rain = 0
KES1 141003Z 01007KT 21/17 A3013 RMK A01 T02060166  RH  078%=      5-min Rain = 0
KES1 141004Z 02008KT 21/17 A3013 RMK A01 T02060166  RH  078%=      5-min Rain = 0
KES1 141005Z 02007KT 21/17 A3013 RMK A01 T02060165  RH  077%=      5-min Rain = 0
KES1 141006Z 02006KT 21/17 A3013 RMK A01 T02070166  RH  078%=      5-min Rain = 0
KES1 141007Z 02006KT 21/17 A3013 RMK A01 T02070167  RH  078%=      5-min Rain = 0
KES1 141008Z 01005KT 21/17 A3013 RMK A01 T02070167  RH  078%=      5-min Rain = 0
KES1 141009Z 02006KT 21/17 A3013 RMK A01 T02070167  RH  078%=      5-min Rain = 0
KES1 141010Z 01005KT 21/17 A3013 RMK A01 T02070167  RH  078%=      5-min Rain = 0
KES1 141011Z 01006KT 21/17 A3013 RMK A01 T02070167  RH  078%=      5-min Rain = 0
KES1 141012Z 01005KT 21/17 A3014 RMK A01 T02070167  RH  078%=      5-min Rain = 0
KES1 141013Z 01005KT 21/17 A3014 RMK A01 T02070167  RH  078%=      5-min Rain = 0
KES1 141014Z 02004KT 21/17 A3014 RMK A01 T02070167  RH  078%=      5-min Rain = 0
KES1 141015Z 02004KT 21/17 A3014 RMK A01 T02070168  RH  078%=      5-min Rain = 0
KES1 141016Z 02005KT 21/17 A3014 RMK A01 T02060168  RH  079%=      5-min Rain = 0
KES1 141017Z 03005KT 21/17 A3014 RMK A01 T02060168  RH  079%=      5-min Rain = 0
KES1 141018Z 02005KT 21/17 A3014 RMK A01 T02050167  RH  079%=      5-min Rain = 0
KES1 141019Z 02004KT 21/17 A3014 RMK A01 T02050167  RH  079%=      5-min Rain = 0
KES1 141020Z 02005KT 21/17 A3014 RMK A01 T02050167  RH  079%=      5-min Rain = 0
KES1 141021Z 01005KT 21/17 A3014 RMK A01 T02050166  RH  079%=      5-min Rain = 0
KES1 141022Z 01005KT 21/17 A3014 RMK A01 T02050167  RH  079%=      5-min Rain = 0
KES1 141023Z 01004KT 21/17 A3014 RMK A01 T02050167  RH  079%=      5-min Rain = 0
KES1 141024Z 01004KT 21/17 A3014 RMK A01 T02050167  RH  079%=      5-min Rain = 0
KES1 141025Z 00005KT 21/17 A3014 RMK A01 T02060167  RH  079%=      5-min Rain = 0
KES1 141026Z 01004KT 21/17 A3014 RMK A01 T02050167  RH  079%=      5-min Rain = 0
KES1 141027Z 01005KT 21/17 A3014 RMK A01 T02060168  RH  079%=      5-min Rain = 0
KES1 141028Z 02004KT 21/17 A3014 RMK A01 T02060167  RH  079%=      5-min Rain = 0
KES1 141029Z 02004KT 21/17 A3014 RMK A01 T02060168  RH  079%=      5-min Rain = 0
KES1 141030Z 03003KT 21/17 A3014 RMK A01 T02060168  RH  079%=      5-min Rain = 0
KES1 141031Z 03003KT 21/17 A3014 RMK A01 T02050168  RH  079%=      5-min Rain = 0
KES1 141032Z 03003KT 21/17 A3014 RMK A01 T02050168  RH  079%=      5-min Rain = 0
KES1 141033Z 03004KT 21/17 A3014 RMK A01 T02050168  RH  079%=      5-min Rain = 0
KES1 141034Z 03004KT 20/17 A3014 RMK A01 T02040167  RH  079%=      5-min Rain = 0
KES1 141035Z 03003KT 20/17 A3014 RMK A01 T02040167  RH  079%=      5-min Rain = 0
KES1 141036Z 03003KT 20/17 A3014 RMK A01 T02040167  RH  079%=      5-min Rain = 0
KES1 141037Z 04004KT 20/17 A3014 RMK A01 T02040168  RH  080%=      5-min Rain = 0
KES1 141038Z 03004KT 20/17 A3014 RMK A01 T02040168  RH  080%=      5-min Rain = 0
KES1 141039Z 03004KT 20/17 A3014 RMK A01 T02040168  RH  080%=      5-min Rain = 0
KES1 141040Z 02004KT 20/17 A3013 RMK A01 T02030168  RH  080%=      5-min Rain = 0
KES1 141041Z 02004KT 20/17 A3013 RMK A01 T02030168  RH  080%=      5-min Rain = 0
KES1 141042Z 02004KT 20/17 A3013 RMK A01 T02030169  RH  080%=      5-min Rain = 0
KES1 141043Z 01005KT 20/17 A3013 RMK A01 T02030168  RH  080%=      5-min Rain = 0
KES1 141044Z 01005KT 20/17 A3013 RMK A01 T02030168  RH  080%=      5-min Rain = 0
KES1 141045Z 01004KT 20/17 A3014 RMK A01 T02030169  RH  081%=      5-min Rain = 0
KES1 141046Z 01005KT 20/17 A3014 RMK A01 T02030168  RH  080%=      5-min Rain = 0
KES1 141047Z 01005KT 20/17 A3014 RMK A01 T02030168  RH  080%=      5-min Rain = 0
KES1 141048Z 01005KT 20/17 A3014 RMK A01 T02030168  RH  080%=      5-min Rain = 0
KES1 141049Z 01005KT 20/17 A3014 RMK A01 T02030168  RH  080%=      5-min Rain = 0
KES1 141050Z 36004KT 20/17 A3014 RMK A01 T02030168  RH  080%=      5-min Rain = 0
KES1 141051Z 00005KT 20/17 A3014 RMK A01 T02040169  RH  081%=      5-min Rain = 0
KES1 141052Z 35005KT 20/17 A3014 RMK A01 T02040169  RH  081%=      5-min Rain = 0
KES1 141053Z 36005KT 20/17 A3014 RMK A01 T02030169  RH  081%=      5-min Rain = 0
KES1 141054Z 00004KT 20/17 A3014 RMK A01 T02030169  RH  081%=      5-min Rain = 0
KES1 141055Z 36004KT 20/17 A3014 RMK A01 T02040170  RH  081%=      5-min Rain = 0
KES1 141056Z 36004KT 20/17 A3014 RMK A01 T02040170  RH  081%=      5-min Rain = 0
KES1 141057Z 36005KT 20/17 A3014 RMK A01 T02040170  RH  081%=      5-min Rain = 0
KES1 141058Z 35005KT 20/17 A3014 RMK A01 T02040170  RH  081%=      5-min Rain = 0
KES1 141059Z 35005KT 20/17 A3014 RMK A01 T02040170  RH  081%=      5-min Rain = 0
KES1 141100Z 35006KT 20/17 A3014 RMK A01 T02030170  RH  081%=      5-min Rain = 0
KES1 141101Z 35006KT 20/17 A3015 RMK A01 T02030170  RH  081%=      5-min Rain = 0
KES1 141102Z 35006KT 20/17 A3015 RMK A01 T02030170  RH  081%=      5-min Rain = 0
KES1 141103Z 35005KT 20/17 A3015 RMK A01 T02030170  RH  081%=      5-min Rain = 0
KES1 141104Z 35005KT 20/17 A3015 RMK A01 T02030170  RH  081%=      5-min Rain = 0
KES1 141105Z 35005KT 20/17 A3015 RMK A01 T02030170  RH  081%=      5-min Rain = 0
KES1 141106Z 35005KT 20/17 A3015 RMK A01 T02030170  RH  082%=      5-min Rain = 0
KES1 141107Z 35006KT 20/17 A3015 RMK A01 T02030171  RH  082%=      5-min Rain = 0
KES1 141108Z 35005KT 20/17 A3015 RMK A01 T02030170  RH  082%=      5-min Rain = 0
KES1 141109Z 35007KT 20/17 A3015 RMK A01 T02030170  RH  082%=      5-min Rain = 0
KES1 141110Z 34006KT 20/17 A3015 RMK A01 T02030170  RH  082%=      5-min Rain = 0
KES1 141111Z 34007KT 20/17 A3015 RMK A01 T02030170  RH  082%=      5-min Rain = 0
KES1 141112Z 33007KT 20/17 A3015 RMK A01 T02030171  RH  082%=      5-min Rain = 0
KES1 141113Z 34006KT 20/17 A3015 RMK A01 T02030170  RH  082%=      5-min Rain = 0
KES1 141114Z 33005KT 20/17 A3015 RMK A01 T02020169  RH  081%=      5-min Rain = 0
KES1 141115Z 33004KT 20/17 A3015 RMK A01 T02020170  RH  082%=      5-min Rain = 0
KES1 141116Z 33004KT 20/17 A3014 RMK A01 T02020170  RH  082%=      5-min Rain = 0
KES1 141117Z 33004KT 20/17 A3014 RMK A01 T02020169  RH  082%=      5-min Rain = 0
KES1 141118Z 34004KT 20/17 A3014 RMK A01 T02020169  RH  082%=      5-min Rain = 0
KES1 141119Z 34005KT 20/17 A3015 RMK A01 T02020170  RH  082%=      5-min Rain = 0
KES1 141120Z 33005KT 20/17 A3015 RMK A01 T02010169  RH  082%=      5-min Rain = 0
KES1 141121Z 33005KT 20/17 A3015 RMK A01 T02010169  RH  082%=      5-min Rain = 0
KES1 141122Z 33005KT 20/17 A3015 RMK A01 T02010170  RH  082%=      5-min Rain = 0
KES1 141123Z 33005KT 20/17 A3015 RMK A01 T02000169  RH  082%=      5-min Rain = 0
KES1 141124Z 34005KT 20/17 A3015 RMK A01 T02000170  RH  083%=      5-min Rain = 0
KES1 141125Z 34005KT 20/17 A3015 RMK A01 T02000169  RH  083%=      5-min Rain = 0
KES1 141126Z 34005KT 20/17 A3015 RMK A01 T02000170  RH  083%=      5-min Rain = 0
KES1 141127Z 34005KT 20/17 A3015 RMK A01 T02000170  RH  083%=      5-min Rain = 0
KES1 141128Z 34005KT 20/17 A3015 RMK A01 T02000170  RH  083%=      5-min Rain = 0
KES1 141129Z 34006KT 20/17 A3015 RMK A01 T01990170  RH  083%=      5-min Rain = 0
KES1 141130Z 34006KT 20/17 A3015 RMK A01 T01990170  RH  083%=      5-min Rain = 0
KES1 141131Z 34006KT 20/17 A3015 RMK A01 T02000170  RH  083%=      5-min Rain = 0
KES1 141132Z 34006KT 20/17 A3015 RMK A01 T01990170  RH  083%=      5-min Rain = 0
KES1 141133Z 34006KT 20/17 A3015 RMK A01 T01990170  RH  083%=      5-min Rain = 0
KES1 141134Z 34006KT 20/17 A3015 RMK A01 T01990169  RH  083%=      5-min Rain = 0
KES1 141135Z 34006KT 20/17 A3015 RMK A01 T01990170  RH  083%=      5-min Rain = 0
KES1 141136Z 34006KT 20/17 A3015 RMK A01 T01990170  RH  083%=      5-min Rain = 0
KES1 141137Z 34006KT 20/17 A3015 RMK A01 T01990170  RH  083%=      5-min Rain = 0
KES1 141138Z 34005KT 20/17 A3015 RMK A01 T01990170  RH  083%=      5-min Rain = 0
KES1 141139Z 34005KT 20/17 A3015 RMK A01 T01990170  RH  083%=      5-min Rain = 0
KES1 141140Z 34005KT 20/17 A3015 RMK A01 T01990170  RH  083%=      5-min Rain = 0
KES1 141141Z 34006KT 20/17 A3015 RMK A01 T01990170  RH  084%=      5-min Rain = 0
KES1 141142Z 34006KT 20/17 A3015 RMK A01 T01990170  RH  083%=      5-min Rain = 0
KES1 141143Z 34005KT 20/17 A3015 RMK A01 T01990170  RH  084%=      5-min Rain = 0
KES1 141144Z 34006KT 20/17 A3015 RMK A01 T01990170  RH  084%=      5-min Rain = 0
KES1 141145Z 34006KT 20/17 A3015 RMK A01 T01990170  RH  084%=      5-min Rain = 0
KES1 141146Z 34006KT 20/17 A3015 RMK A01 T01980170  RH  084%=      5-min Rain = 0
KES1 141147Z 34005KT 20/17 A3015 RMK A01 T01980170  RH  084%=      5-min Rain = 0
KES1 141148Z 34005KT 20/17 A3015 RMK A01 T01980170  RH  084%=      5-min Rain = 0
KES1 141149Z 34005KT 20/17 A3015 RMK A01 T01980170  RH  084%=      5-min Rain = 0
KES1 141150Z 33005KT 20/17 A3015 RMK A01 T01980170  RH  084%=      5-min Rain = 0
KES1 141151Z 33005KT 20/17 A3015 RMK A01 T01980170  RH  084%=      5-min Rain = 0
KES1 141152Z 33005KT 20/17 A3015 RMK A01 T01980171  RH  084%=      5-min Rain = 0
KES1 141153Z 33005KT 20/17 A3015 RMK A01 T01980170  RH  084%=      5-min Rain = 0
KES1 141154Z 34005KT 20/17 A3015 RMK A01 T01980170  RH  084%=      5-min Rain = 0
KES1 141155Z 34005KT 20/17 A3015 RMK A01 T01980170  RH  084%=      5-min Rain = 0
KES1 141156Z 34004KT 20/17 A3015 RMK A01 T01970170  RH  084%=      5-min Rain = 0
KES1 141157Z 34004KT 20/17 A3015 RMK A01 T01980170  RH  084%=      5-min Rain = 0
KES1 141158Z 34004KT 20/17 A3015 RMK A01 T01980170  RH  084%=      5-min Rain = 0
KES1 141159Z 33004KT 20/17 A3015 RMK A01 T01980170  RH  084%=      5-min Rain = 0
KES1 141200Z 33004KT 20/17 A3015 RMK A01 T01970170  RH  084%=      5-min Rain = 0
KES1 141201Z 32004KT 20/17 A3015 RMK A01 T01980171  RH  084%=      5-min Rain = 0
KES1 141202Z 32004KT 20/17 A3015 RMK A01 T01970170  RH  084%=      5-min Rain = 0
KES1 141203Z 32004KT 20/17 A3015 RMK A01 T01970171  RH  085%=      5-min Rain = 0
KES1 141204Z 32004KT 20/17 A3015 RMK A01 T01970171  RH  085%=      5-min Rain = 0
KES1 141205Z 32005KT 20/17 A3015 RMK A01 T01970171  RH  085%=      5-min Rain = 0
KES1 141206Z 32005KT 20/17 A3015 RMK A01 T01970172  RH  085%=      5-min Rain = 0
KES1 141207Z 32004KT 20/17 A3015 RMK A01 T01970171  RH  085%=      5-min Rain = 0
KES1 141208Z 33004KT 20/17 A3015 RMK A01 T01970171  RH  085%=      5-min Rain = 0
KES1 141209Z 33003KT 20/17 A3015 RMK A01 T01970171  RH  085%=      5-min Rain = 0
KES1 141210Z 33003KT 20/17 A3015 RMK A01 T01970171  RH  085%=      5-min Rain = 0
KES1 141211Z 33003KT 20/17 A3015 RMK A01 T01970171  RH  085%=      5-min Rain = 0
KES1 141212Z 32002KT 20/17 A3015 RMK A01 T01970171  RH  085%=      5-min Rain = 0
KES1 141213Z 32003KT 20/17 A3015 RMK A01 T01970171  RH  085%=      5-min Rain = 0
KES1 141214Z 31003KT 20/17 A3015 RMK A01 T01970171  RH  085%=      5-min Rain = 0
KES1 141215Z 32003KT 20/17 A3015 RMK A01 T01970171  RH  085%=      5-min Rain = 0
KES1 141216Z 32003KT 20/17 A3015 RMK A01 T01970171  RH  085%=      5-min Rain = 0
KES1 141217Z 34003KT 20/17 A3015 RMK A01 T01970171  RH  085%=      5-min Rain = 0
KES1 141218Z 33003KT 20/17 A3015 RMK A01 T01980171  RH  085%=      5-min Rain = 0
KES1 141219Z 33003KT 20/17 A3015 RMK A01 T01980171  RH  085%=      5-min Rain = 0
KES1 141220Z 32003KT 20/17 A3015 RMK A01 T01980171  RH  085%=      5-min Rain = 0
KES1 141221Z 33002KT 20/17 A3015 RMK A01 T01980171  RH  084%=      5-min Rain = 0
KES1 141222Z 34003KT 20/17 A3015 RMK A01 T01980172  RH  085%=      5-min Rain = 0
KES1 141223Z 34003KT 20/17 A3016 RMK A01 T01980171  RH  084%=      5-min Rain = 0
KES1 141224Z 34004KT 20/17 A3016 RMK A01 T01980172  RH  084%=      5-min Rain = 0
KES1 141225Z 34004KT 20/17 A3016 RMK A01 T01980171  RH  084%=      5-min Rain = 0
KES1 141226Z 35004KT 20/17 A3016 RMK A01 T01990172  RH  084%=      5-min Rain = 0
KES1 141227Z 35003KT 20/17 A3016 RMK A01 T01980172  RH  084%=      5-min Rain = 0
KES1 141228Z 35001KT 20/17 A3016 RMK A01 T01980172  RH  085%=      5-min Rain = 0
KES1 141229Z 00001KT 20/17 A3015 RMK A01 T01980172  RH  085%=      5-min Rain = 0
KES1 141230Z 00001KT 20/17 A3015 RMK A01 T01990171  RH  084%=      5-min Rain = 0
KES1 141231Z 36000KT 20/17 A3015 RMK A01 T02000171  RH  083%=      5-min Rain = 0
KES1 141232Z 35000KT 20/17 A3015 RMK A01 T02000171  RH  083%=      5-min Rain = 0
KES1 141233Z 33001KT 20/17 A3015 RMK A01 T02010171  RH  083%=      5-min Rain = 0
KES1 141234Z 33002KT 20/17 A3015 RMK A01 T02010172  RH  083%=      5-min Rain = 0
KES1 141235Z 32002KT 20/17 A3016 RMK A01 T02010172  RH  083%=      5-min Rain = 0
KES1 141236Z 31003KT 20/17 A3016 RMK A01 T02010173  RH  083%=      5-min Rain = 0
KES1 141237Z 31003KT 20/17 A3016 RMK A01 T02020174  RH  084%=      5-min Rain = 0
KES1 141238Z 31002KT 20/17 A3016 RMK A01 T02020174  RH  084%=      5-min Rain = 0
KES1 141239Z 30003KT 20/17 A3016 RMK A01 T02020174  RH  084%=      5-min Rain = 0
KES1 141240Z 30003KT 20/17 A3016 RMK A01 T02020173  RH  084%=      5-min Rain = 0
KES1 141241Z 30003KT 20/17 A3016 RMK A01 T02010174  RH  084%=      5-min Rain = 0
KES1 141242Z 30003KT 20/17 A3016 RMK A01 T02010173  RH  084%=      5-min Rain = 0
KES1 141243Z 30004KT 20/17 A3016 RMK A01 T02010173  RH  084%=      5-min Rain = 0
KES1 141244Z 30003KT 20/17 A3016 RMK A01 T02010173  RH  084%=      5-min Rain = 0
KES1 141245Z 29003KT 20/17 A3016 RMK A01 T02010173  RH  084%=      5-min Rain = 0
KES1 141246Z 26002KT 20/17 A3015 RMK A01 T02010173  RH  084%=      5-min Rain = 0
KES1 141247Z 23003KT 20/17 A3015 RMK A01 T02010174  RH  084%=      5-min Rain = 0
KES1 141248Z 23003KT 20/17 A3015 RMK A01 T02020174  RH  084%=      5-min Rain = 0
KES1 141249Z 25003KT 20/17 A3015 RMK A01 T02020173  RH  083%=      5-min Rain = 0
KES1 141250Z 27002KT 20/17 A3015 RMK A01 T02030172  RH  082%=      5-min Rain = 0
KES1 141251Z 29003KT 20/17 A3016 RMK A01 T02030172  RH  082%=      5-min Rain = 0
KES1 141252Z 30004KT 20/17 A3016 RMK A01 T02030172  RH  082%=      5-min Rain = 0
KES1 141253Z 30003KT 20/17 A3016 RMK A01 T02040173  RH  082%=      5-min Rain = 0
KES1 141254Z 31004KT 21/18 A3016 RMK A01 T02050175  RH  083%=      5-min Rain = 0
KES1 141255Z 32004KT 21/18 A3016 RMK A01 T02060176  RH  083%=      5-min Rain = 0
KES1 141256Z 32004KT 21/18 A3016 RMK A01 T02080175  RH  081%=      5-min Rain = 0
KES1 141257Z 31004KT 21/17 A3016 RMK A01 T02090174  RH  081%=      5-min Rain = 0
KES1 141258Z 31004KT 21/17 A3016 RMK A01 T02090173  RH  080%=      5-min Rain = 0
KES1 141259Z 31003KT 21/17 A3016 RMK A01 T02100174  RH  080%=      5-min Rain = 0
KES1 141300Z 30002KT 21/17 A3016 RMK A01 T02100172  RH  079%=      5-min Rain = 0
KES1 141301Z 30002KT 21/17 A3016 RMK A01 T02100172  RH  079%=      5-min Rain = 0
KES1 141302Z 30004KT 21/17 A3016 RMK A01 T02100174  RH  079%=      5-min Rain = 0
KES1 141303Z 31006KT 21/17 A3016 RMK A01 T02110174  RH  079%=      5-min Rain = 0
KES1 141304Z 31008KT 21/18 A3017 RMK A01 T02120175  RH  079%=      5-min Rain = 0
KES1 141305Z 31008KT 21/17 A3017 RMK A01 T02130174  RH  079%=      5-min Rain = 0
KES1 141306Z 31009KT 21/17 A3017 RMK A01 T02130174  RH  078%=      5-min Rain = 0
KES1 141307Z 31009KT 21/17 A3017 RMK A01 T02140174  RH  078%=      5-min Rain = 0
KES1 141308Z 32009KT 21/17 A3017 RMK A01 T02140173  RH  077%=      5-min Rain = 0
KES1 141309Z 31008KT 21/17 A3017 RMK A01 T02140173  RH  078%=      5-min Rain = 0
KES1 141310Z 32007KT 21/17 A3017 RMK A01 T02140174  RH  078%=      5-min Rain = 0
KES1 141311Z 31006KT 21/17 A3017 RMK A01 T02140174  RH  078%=      5-min Rain = 0
KES1 141312Z 32009KT 22/17 A3017 RMK A01 T02150174  RH  077%=      5-min Rain = 0
KES1 141313Z 31008KT 22/17 A3017 RMK A01 T02160174  RH  077%=      5-min Rain = 0
KES1 141314Z 32011KT 22/18 A3018 RMK A01 T02170175  RH  077%=      5-min Rain = 0
KES1 141315Z 31010KT 22/17 A3018 RMK A01 T02180174  RH  076%=      5-min Rain = 0
KES1 141316Z 31010KT 22/18 A3018 RMK A01 T02180175  RH  076%=      5-min Rain = 0
KES1 141317Z 32011KT 22/17 A3018 RMK A01 T02200174  RH  075%=      5-min Rain = 0
KES1 141318Z 31009KT 22/18 A3018 RMK A01 T02200175  RH  075%=      5-min Rain = 0
KES1 141319Z 31008KT 22/18 A3018 RMK A01 T02210176  RH  076%=      5-min Rain = 0
KES1 141320Z 31009KT 22/18 A3018 RMK A01 T02220176  RH  075%=      5-min Rain = 0
KES1 141321Z 31011KT 22/17 A3018 RMK A01 T02230174  RH  074%=      5-min Rain = 0
KES1 141322Z 31009KT 22/17 A3018 RMK A01 T02230173  RH  073%=      5-min Rain = 0
KES1 141323Z 32007KT 22/17 A3018 RMK A01 T02220174  RH  074%=      5-min Rain = 0
KES1 141324Z 31008KT 22/17 A3018 RMK A01 T02220174  RH  074%=      5-min Rain = 0
KES1 141325Z 31008KT 22/18 A3018 RMK A01 T02230175  RH  074%=      5-min Rain = 0
KES1 141326Z 31009KT 22/17 A3018 RMK A01 T02230174  RH  074%=      5-min Rain = 0
KES1 141327Z 31010KT 22/18 A3018 RMK A01 T02240175  RH  074%=      5-min Rain = 0
KES1 141328Z 31010KT 22/17 A3018 RMK A01 T02240173  RH  073%=      5-min Rain = 0
KES1 141329Z 30009KT 22/17 A3018 RMK A01 T02240174  RH  074%=      5-min Rain = 0
KES1 141330Z 31010KT 22/18 A3018 RMK A01 T02240175  RH  074%=      5-min Rain = 0
KES1 141331Z 31007KT 22/17 A3018 RMK A01 T02240174  RH  073%=      5-min Rain = 0
KES1 141332Z 32007KT 23/18 A3018 RMK A01 T02250175  RH  073%=      5-min Rain = 0
KES1 141333Z 32008KT 23/18 A3018 RMK A01 T02260175  RH  073%=      5-min Rain = 0
KES1 141334Z 31008KT 23/18 A3018 RMK A01 T02270176  RH  073%=      5-min Rain = 0
KES1 141335Z 31008KT 23/18 A3018 RMK A01 T02280176  RH  072%=      5-min Rain = 0
KES1 141336Z 31007KT 23/18 A3018 RMK A01 T02280175  RH  072%=      5-min Rain = 0
KES1 141337Z 33007KT 23/18 A3018 RMK A01 T02280176  RH  073%=      5-min Rain = 0
KES1 141338Z 32006KT 23/18 A3018 RMK A01 T02260176  RH  073%=      5-min Rain = 0
KES1 141339Z 31007KT 23/18 A3018 RMK A01 T02250178  RH  075%=      5-min Rain = 0
KES1 141340Z 32008KT 23/18 A3018 RMK A01 T02250177  RH  074%=      5-min Rain = 0
KES1 141341Z 32008KT 23/18 A3018 RMK A01 T02250177  RH  074%=      5-min Rain = 0
KES1 141342Z 32007KT 23/18 A3018 RMK A01 T02250176  RH  074%=      5-min Rain = 0
KES1 141343Z 32008KT 23/18 A3018 RMK A01 T02250178  RH  075%=      5-min Rain = 0
KES1 141344Z 32008KT 23/18 A3018 RMK A01 T02260177  RH  074%=      5-min Rain = 0
KES1 141345Z 32006KT 23/18 A3018 RMK A01 T02260176  RH  073%=      5-min Rain = 0
KES1 141346Z 32005KT 23/18 A3019 RMK A01 T02260177  RH  074%=      5-min Rain = 0
KES1 141347Z 31006KT 23/18 A3019 RMK A01 T02260177  RH  074%=      5-min Rain = 0
KES1 141348Z 32005KT 23/18 A3019 RMK A01 T02260177  RH  074%=      5-min Rain = 0
KES1 141349Z 31006KT 23/18 A3019 RMK A01 T02260178  RH  074%=      5-min Rain = 0
KES1 141350Z 32006KT 23/18 A3019 RMK A01 T02260178  RH  074%=      5-min Rain = 0
KES1 141351Z 33006KT 23/18 A3019 RMK A01 T02260177  RH  074%=      5-min Rain = 0
KES1 141352Z 32005KT 23/18 A3019 RMK A01 T02260176  RH  073%=      5-min Rain = 0
KES1 141353Z 32006KT 23/18 A3019 RMK A01 T02250177  RH  074%=      5-min Rain = 0
KES1 141354Z 32005KT 23/18 A3019 RMK A01 T02250177  RH  074%=      5-min Rain = 0
KES1 141355Z 33004KT 23/18 A3019 RMK A01 T02250178  RH  075%=      5-min Rain = 0
KES1 141356Z 33005KT 23/18 A3019 RMK A01 T02250178  RH  074%=      5-min Rain = 0
KES1 141357Z 33005KT 23/18 A3019 RMK A01 T02260176  RH  074%=      5-min Rain = 0
KES1 141358Z 31004KT 23/18 A3019 RMK A01 T02270178  RH  074%=      5-min Rain = 0
KES1 141359Z 32004KT 23/18 A3019 RMK A01 T02300182  RH  074%=      5-min Rain = 0
KES1 141400Z 31005KT 23/18 A3019 RMK A01 T02320178  RH  072%=      5-min Rain = 0
KES1 141401Z 31006KT 23/18 A3019 RMK A01 T02340180  RH  072%=      5-min Rain = 0
KES1 141402Z 31006KT 24/18 A3019 RMK A01 T02360178  RH  070%=      5-min Rain = 0
KES1 141403Z 31006KT 24/18 A3019 RMK A01 T02360179  RH  070%=      5-min Rain = 0
KES1 141404Z 32005KT 24/18 A3019 RMK A01 T02370179  RH  070%=      5-min Rain = 0
KES1 141405Z 32007KT 24/18 A3019 RMK A01 T02390179  RH  069%=      5-min Rain = 0
KES1 141406Z 32006KT 24/18 A3019 RMK A01 T02390177  RH  068%=      5-min Rain = 0
KES1 141407Z 31006KT 24/18 A3019 RMK A01 T02380178  RH  069%=      5-min Rain = 0
KES1 141408Z 31006KT 24/18 A3019 RMK A01 T02390178  RH  069%=      5-min Rain = 0
KES1 141409Z 30006KT 24/18 A3019 RMK A01 T02400177  RH  068%=      5-min Rain = 0
KES1 141410Z 31006KT 24/18 A3019 RMK A01 T02400177  RH  068%=      5-min Rain = 0
KES1 141411Z 31005KT 24/18 A3019 RMK A01 T02410179  RH  068%=      5-min Rain = 0
KES1 141412Z 32006KT 24/18 A3019 RMK A01 T02420178  RH  068%=      5-min Rain = 0
KES1 141413Z 31005KT 24/18 A3019 RMK A01 T02420177  RH  067%=      5-min Rain = 0
KES1 141414Z 32007KT 24/18 A3019 RMK A01 T02420179  RH  068%=      5-min Rain = 0
KES1 141415Z 33007KT 24/18 A3019 RMK A01 T02420178  RH  067%=      5-min Rain = 0
KES1 141416Z 32007KT 24/18 A3019 RMK A01 T02430179  RH  068%=      5-min Rain = 0
KES1 141417Z 32007KT 24/18 A3019 RMK A01 T02440180  RH  067%=      5-min Rain = 0
KES1 141418Z 32007KT 25/18 A3019 RMK A01 T02460178  RH  066%=      5-min Rain = 0
KES1 141419Z 34008KT 25/18 A3019 RMK A01 T02460177  RH  066%=      5-min Rain = 0
KES1 141420Z 32007KT 24/18 A3019 RMK A01 T02440175  RH  065%=      5-min Rain = 0
KES1 141421Z 33006KT 24/18 A3019 RMK A01 T02430177  RH  066%=      5-min Rain = 0
KES1 141422Z 32009KT 25/18 A3019 RMK A01 T02450179  RH  067%=      5-min Rain = 0
KES1 141423Z 32009KT 25/18 A3019 RMK A01 T02470176  RH  065%=      5-min Rain = 0
KES1 141424Z 32007KT 25/18 A3019 RMK A01 T02470177  RH  065%=      5-min Rain = 0
KES1 141425Z 33006KT 25/18 A3019 RMK A01 T02480177  RH  065%=      5-min Rain = 0
KES1 141426Z 33007KT 25/18 A3019 RMK A01 T02470176  RH  065%=      5-min Rain = 0
KES1 141427Z 34008KT 25/18 A3019 RMK A01 T02450177  RH  066%=      5-min Rain = 0
KES1 141428Z 34008KT 24/18 A3019 RMK A01 T02440176  RH  066%=      5-min Rain = 0
KES1 141429Z 34008KT 24/18 A3019 RMK A01 T02420176  RH  066%=      5-min Rain = 0
KES1 141430Z 33008KT 24/18 A3019 RMK A01 T02420176  RH  067%=      5-min Rain = 0
KES1 141431Z 32007KT 24/18 A3019 RMK A01 T02420175  RH  066%=      5-min Rain = 0
KES1 141432Z 33006KT 24/18 A3019 RMK A01 T02420176  RH  066%=      5-min Rain = 0
KES1 141433Z 33007KT 24/18 A3019 RMK A01 T02420177  RH  067%=      5-min Rain = 0
KES1 141434Z 33007KT 24/18 A3019 RMK A01 T02430176  RH  066%=      5-min Rain = 0
KES1 141435Z 33005KT 24/18 A3019 RMK A01 T02440177  RH  066%=      5-min Rain = 0
KES1 141436Z 34007KT 25/18 A3019 RMK A01 T02450175  RH  065%=      5-min Rain = 0
KES1 141437Z 34007KT 25/18 A3019 RMK A01 T02460176  RH  065%=      5-min Rain = 0
KES1 141438Z 34007KT 25/18 A3018 RMK A01 T02460175  RH  065%=      5-min Rain = 0
KES1 141439Z 33006KT 25/18 A3018 RMK A01 T02470177  RH  065%=      5-min Rain = 0
KES1 141440Z 33004KT 25/18 A3018 RMK A01 T02500179  RH  065%=      5-min Rain = 0
KES1 141441Z 31005KT 25/18 A3018 RMK A01 T02520178  RH  063%=      5-min Rain = 0
KES1 141442Z 31006KT 25/18 A3018 RMK A01 T02530179  RH  064%=      5-min Rain = 0
KES1 141443Z 30006KT 25/18 A3017 RMK A01 T02540177  RH  062%=      5-min Rain = 0
KES1 141444Z 31005KT 25/18 A3017 RMK A01 T02540176  RH  062%=      5-min Rain = 0
KES1 141445Z 30005KT 25/18 A3017 RMK A01 T02520176  RH  063%=      5-min Rain = 0
KES1 141446Z 30005KT 25/18 A3017 RMK A01 T02520178  RH  064%=      5-min Rain = 0
KES1 141447Z 30005KT 25/18 A3017 RMK A01 T02530178  RH  063%=      5-min Rain = 0
KES1 141448Z 33004KT 25/18 A3018 RMK A01 T02540178  RH  063%=      5-min Rain = 0
KES1 141449Z 33006KT 26/18 A3018 RMK A01 T02550178  RH  063%=      5-min Rain = 0
KES1 141450Z 31005KT 25/18 A3018 RMK A01 T02540176  RH  062%=      5-min Rain = 0
KES1 141451Z 30006KT 25/18 A3018 RMK A01 T02530179  RH  063%=      5-min Rain = 0
KES1 141452Z 30005KT 25/18 A3018 RMK A01 T02530177  RH  063%=      5-min Rain = 0
KES1 141453Z 30004KT 25/18 A3018 RMK A01 T02520177  RH  063%=      5-min Rain = 0
KES1 141454Z 31003KT 25/18 A3018 RMK A01 T02510177  RH  063%=      5-min Rain = 0
KES1 141455Z 31004KT 25/18 A3018 RMK A01 T02510179  RH  064%=      5-min Rain = 0
KES1 141456Z 30004KT 25/18 A3018 RMK A01 T02530178  RH  063%=      5-min Rain = 0
KES1 141457Z 32006KT 25/18 A3018 RMK A01 T02540180  RH  063%=      5-min Rain = 0
KES1 141458Z 33006KT 26/18 A3018 RMK A01 T02560181  RH  063%=      5-min Rain = 0
KES1 141459Z 31004KT 26/18 A3018 RMK A01 T02570181  RH  062%=      5-min Rain = 0
KES1 141500Z 31005KT 26/18 A3018 RMK A01 T02580183  RH  063%=      5-min Rain = 0
KES1 141501Z 31004KT 26/18 A3018 RMK A01 T02600180  RH  061%=      5-min Rain = 0
KES1 141502Z 32005KT 26/18 A3018 RMK A01 T02600181  RH  062%=      5-min Rain = 0
KES1 141503Z 32006KT 26/18 A3018 RMK A01 T02600182  RH  062%=      5-min Rain = 0
KES1 141504Z 31005KT 26/18 A3018 RMK A01 T02600180  RH  062%=      5-min Rain = 0
KES1 141505Z 29003KT 26/18 A3018 RMK A01 T02600181  RH  062%=      5-min Rain = 0
KES1 141506Z 30004KT 26/18 A3018 RMK A01 T02600180  RH  061%=      5-min Rain = 0
KES1 141507Z 30005KT 26/18 A3018 RMK A01 T02610179  RH  061%=      5-min Rain = 0
KES1 141508Z 31006KT 26/18 A3018 RMK A01 T02600182  RH  062%=      5-min Rain = 0
KES1 141509Z 29006KT 26/18 A3018 RMK A01 T02620184  RH  062%=      5-min Rain = 0
KES1 141510Z 30007KT 27/18 A3018 RMK A01 T02660182  RH  060%=      5-min Rain = 0
KES1 141511Z 30008KT 27/18 A3018 RMK A01 T02660182  RH  060%=      5-min Rain = 0
KES1 141512Z 30007KT 27/18 A3018 RMK A01 T02650182  RH  060%=      5-min Rain = 0
KES1 141513Z 29007KT 27/18 A3018 RMK A01 T02650182  RH  060%=      5-min Rain = 0
KES1 141514Z 28005KT 26/18 A3018 RMK A01 T02640182  RH  061%=      5-min Rain = 0
KES1 141515Z 31006KT 27/18 A3018 RMK A01 T02650184  RH  061%=      5-min Rain = 0
KES1 141516Z 33008KT 27/19 A3018 RMK A01 T02660185  RH  061%=      5-min Rain = 0
KES1 141517Z 31006KT 27/18 A3018 RMK A01 T02650182  RH  060%=      5-min Rain = 0
KES1 141518Z 29003KT 26/19 A3018 RMK A01 T02630185  RH  062%=      5-min Rain = 0
KES1 141519Z 28005KT 27/19 A3018 RMK A01 T02650185  RH  061%=      5-min Rain = 0
KES1 141520Z 31005KT 27/19 A3018 RMK A01 T02670185  RH  061%=      5-min Rain = 0
KES1 141521Z 31004KT 27/18 A3018 RMK A01 T02680184  RH  060%=      5-min Rain = 0
KES1 141522Z 33004KT 27/18 A3018 RMK A01 T02680184  RH  060%=      5-min Rain = 0
KES1 141523Z 32006KT 27/19 A3018 RMK A01 T02670186  RH  061%=      5-min Rain = 0
KES1 141524Z 32005KT 27/19 A3018 RMK A01 T02680185  RH  060%=      5-min Rain = 0
KES1 141525Z 32006KT 27/18 A3018 RMK A01 T02690184  RH  060%=      5-min Rain = 0
KES1 141526Z 31007KT 27/19 A3018 RMK A01 T02680186  RH  061%=      5-min Rain = 0
KES1 141527Z 31005KT 27/19 A3017 RMK A01 T02690185  RH  060%=      5-min Rain = 0
KES1 141528Z 31005KT 27/19 A3017 RMK A01 T02700186  RH  060%=      5-min Rain = 0
KES1 141529Z 30002KT 27/19 A3017 RMK A01 T02710185  RH  059%=      5-min Rain = 0
KES1 141530Z 31003KT 27/19 A3017 RMK A01 T02700186  RH  060%=      5-min Rain = 0
KES1 141531Z 31004KT 27/19 A3017 RMK A01 T02700185  RH  060%=      5-min Rain = 0
KES1 141532Z 32006KT 27/19 A3017 RMK A01 T02700186  RH  060%=      5-min Rain = 0
KES1 141533Z 29006KT 27/19 A3017 RMK A01 T02710185  RH  059%=      5-min Rain = 0
KES1 141534Z 29006KT 27/18 A3017 RMK A01 T02710184  RH  059%=      5-min Rain = 0
KES1 141535Z 30003KT 27/18 A3017 RMK A01 T02690183  RH  059%=      5-min Rain = 0
KES1 141536Z 26002KT 27/18 A3017 RMK A01 T02680183  RH  060%=      5-min Rain = 0
KES1 141537Z 29004KT 27/18 A3017 RMK A01 T02690184  RH  060%=      5-min Rain = 0
KES1 141538Z 29006KT 27/19 A3017 RMK A01 T02710185  RH  059%=      5-min Rain = 0
KES1 141539Z 31004KT 27/19 A3016 RMK A01 T02730187  RH  059%=      5-min Rain = 0
KES1 141540Z 29004KT 28/19 A3016 RMK A01 T02760187  RH  058%=      5-min Rain = 0
KES1 141541Z 29004KT 28/19 A3016 RMK A01 T02780186  RH  058%=      5-min Rain = 0
KES1 141542Z 31003KT 28/19 A3016 RMK A01 T02780186  RH  057%=      5-min Rain = 0
KES1 141543Z 30001KT 28/19 A3016 RMK A01 T02780187  RH  058%=      5-min Rain = 0
KES1 141544Z 24001KT 28/19 A3016 RMK A01 T02770185  RH  057%=      5-min Rain = 0
KES1 141545Z 22002KT 28/19 A3016 RMK A01 T02770185  RH  057%=      5-min Rain = 0
KES1 141546Z 17001KT 28/19 A3016 RMK A01 T02780185  RH  057%=      5-min Rain = 0
KES1 141547Z 01002KT 28/19 A3016 RMK A01 T02780187  RH  058%=      5-min Rain = 0
KES1 141548Z 00003KT 28/19 A3016 RMK A01 T02790186  RH  057%=      5-min Rain = 0
KES1 141549Z 36004KT 28/19 A3016 RMK A01 T02780187  RH  058%=      5-min Rain = 0
KES1 141550Z 35004KT 28/19 A3016 RMK A01 T02760186  RH  058%=      5-min Rain = 0
KES1 141551Z 32004KT 27/19 A3016 RMK A01 T02740185  RH  058%=      5-min Rain = 0
KES1 141552Z 32003KT 27/19 A3016 RMK A01 T02720187  RH  059%=      5-min Rain = 0
KES1 141553Z 30003KT 27/19 A3016 RMK A01 T02730187  RH  060%=      5-min Rain = 0
KES1 141554Z 32005KT 28/19 A3016 RMK A01 T02750189  RH  059%=      5-min Rain = 0
KES1 141555Z 32003KT 28/19 A3016 RMK A01 T02760189  RH  059%=      5-min Rain = 0
KES1 141556Z 01003KT 28/19 A3016 RMK A01 T02780191  RH  059%=      5-min Rain = 0
KES1 141557Z 36004KT 28/19 A3016 RMK A01 T02790189  RH  058%=      5-min Rain = 0
KES1 141558Z 35004KT 28/19 A3016 RMK A01 T02780189  RH  058%=      5-min Rain = 0
KES1 141559Z 36003KT 28/19 A3016 RMK A01 T02760188  RH  059%=      5-min Rain = 0
KES1 141600Z 01003KT 27/19 A3016 RMK A01 T02740188  RH  059%=      5-min Rain = 0
KES1 141601Z 32002KT 27/19 A3016 RMK A01 T02740187  RH  059%=      5-min Rain = 0
KES1 141602Z 35003KT 27/19 A3016 RMK A01 T02740190  RH  060%=      5-min Rain = 0
KES1 141603Z 01003KT 28/19 A3016 RMK A01 T02750187  RH  059%=      5-min Rain = 0
KES1 141604Z 00002KT 27/19 A3016 RMK A01 T02740187  RH  059%=      5-min Rain = 0
KES1 141605Z 02001KT 27/19 A3016 RMK A01 T02740187  RH  059%=      5-min Rain = 0
KES1 141606Z 01001KT 27/19 A3016 RMK A01 T02740188  RH  059%=      5-min Rain = 0
KES1 141607Z 36002KT 28/19 A3016 RMK A01 T02760187  RH  058%=      5-min Rain = 0
KES1 141608Z 01001KT 28/19 A3016 RMK A01 T02760187  RH  058%=      5-min Rain = 0
KES1 141609Z 09003KT 28/19 A3016 RMK A01 T02780190  RH  059%=      5-min Rain = 0
KES1 141610Z 09003KT 28/19 A3015 RMK A01 T02800189  RH  058%=      5-min Rain = 0
KES1 141611Z 09002KT 28/19 A3015 RMK A01 T02810191  RH  058%=      5-min Rain = 0
KES1 141612Z 07002KT 28/19 A3015 RMK A01 T02840190  RH  057%=      5-min Rain = 0
KES1 141613Z 07003KT 29/19 A3015 RMK A01 T02860193  RH  057%=      5-min Rain = 0
KES1 141614Z 08006KT 29/19 A3015 RMK A01 T02880192  RH  056%=      5-min Rain = 0
KES1 141615Z 06005KT 29/19 A3015 RMK A01 T02890190  RH  055%=      5-min Rain = 0
KES1 141616Z 08003KT 29/19 A3015 RMK A01 T02880190  RH  055%=      5-min Rain = 0
KES1 141617Z 10003KT 29/19 A3015 RMK A01 T02860189  RH  056%=      5-min Rain = 0
KES1 141618Z 13002KT 29/19 A3015 RMK A01 T02850188  RH  056%=      5-min Rain = 0
KES1 141619Z 13001KT 29/19 A3015 RMK A01 T02850188  RH  056%=      5-min Rain = 0
KES1 141620Z 12002KT 29/19 A3015 RMK A01 T02850188  RH  056%=      5-min Rain = 0
KES1 141621Z 11004KT 29/19 A3015 RMK A01 T02870191  RH  056%=      5-min Rain = 0
KES1 141622Z 10005KT 29/19 A3015 RMK A01 T02880190  RH  055%=      5-min Rain = 0
KES1 141623Z 11003KT 29/19 A3015 RMK A01 T02870188  RH  055%=      5-min Rain = 0
KES1 141624Z 10002KT 29/19 A3015 RMK A01 T02860189  RH  056%=      5-min Rain = 0
KES1 141625Z 13001KT 29/19 A3014 RMK A01 T02860189  RH  056%=      5-min Rain = 0
KES1 141626Z 11004KT 29/19 A3014 RMK A01 T02860190  RH  056%=      5-min Rain = 0
KES1 141627Z 11006KT 29/19 A3014 RMK A01 T02880190  RH  055%=      5-min Rain = 0
KES1 141628Z 09006KT 29/19 A3014 RMK A01 T02890190  RH  055%=      5-min Rain = 0
KES1 141629Z 08005KT 29/19 A3014 RMK A01 T02900189  RH  055%=      5-min Rain = 0
KES1 141630Z 09005KT 29/19 A3014 RMK A01 T02890190  RH  055%=      5-min Rain = 0
KES1 141631Z 06005KT 29/19 A3014 RMK A01 T02890191  RH  056%=      5-min Rain = 0
KES1 141632Z 07005KT 29/19 A3014 RMK A01 T02910193  RH  056%=      5-min Rain = 0
KES1 141633Z 09005KT 29/19 A3014 RMK A01 T02940192  RH  054%=      5-min Rain = 0
KES1 141634Z 08005KT 30/19 A3014 RMK A01 T02970194  RH  054%=      5-min Rain = 0
KES1 141635Z 09004KT 30/19 A3013 RMK A01 T02980192  RH  053%=      5-min Rain = 0
KES1 141636Z 07004KT 30/20 A3013 RMK A01 T02990195  RH  054%=      5-min Rain = 0
KES1 141637Z 09004KT 30/19 A3013 RMK A01 T03000193  RH  053%=      5-min Rain = 0
KES1 141638Z 08004KT 30/19 A3013 RMK A01 T03000191  RH  052%=      5-min Rain = 0
KES1 141639Z 11005KT 30/19 A3013 RMK A01 T02990193  RH  053%=      5-min Rain = 0
KES1 141640Z 08004KT 30/19 A3013 RMK A01 T02990193  RH  053%=      5-min Rain = 0
KES1 141641Z 08003KT 30/19 A3013 RMK A01 T02990191  RH  052%=      5-min Rain = 0
KES1 141642Z 08005KT 30/19 A3013 RMK A01 T02990193  RH  053%=      5-min Rain = 0
KES1 141643Z 07006KT 30/19 A3013 RMK A01 T02990193  RH  053%=      5-min Rain = 0
KES1 141644Z 05005KT 30/19 A3013 RMK A01 T03000193  RH  053%=      5-min Rain = 0
KES1 141645Z 05003KT 30/19 A3013 RMK A01 T03000193  RH  053%=      5-min Rain = 0
KES1 141646Z 08002KT 30/19 A3014 RMK A01 T03000193  RH  053%=      5-min Rain = 0
KES1 141647Z 01003KT 30/20 A3014 RMK A01 T03010195  RH  053%=      5-min Rain = 0
KES1 141648Z 34004KT 30/20 A3014 RMK A01 T03020195  RH  052%=      5-min Rain = 0
KES1 141649Z 34004KT 30/19 A3014 RMK A01 T03000193  RH  053%=      5-min Rain = 0
KES1 141650Z 36005KT 30/19 A3014 RMK A01 T02980194  RH  054%=      5-min Rain = 0
KES1 141651Z 01005KT 30/20 A3014 RMK A01 T02980196  RH  054%=      5-min Rain = 0
KES1 141652Z 35005KT 30/19 A3014 RMK A01 T02990194  RH  053%=      5-min Rain = 0
KES1 141653Z 34005KT 30/20 A3014 RMK A01 T03000195  RH  054%=      5-min Rain = 0
KES1 141654Z 34006KT 30/20 A3014 RMK A01 T03000195  RH  053%=      5-min Rain = 0
KES1 141655Z 35007KT 30/20 A3014 RMK A01 T02990195  RH  054%=      5-min Rain = 0
KES1 141656Z 02005KT 30/20 A3014 RMK A01 T02990197  RH  054%=      5-min Rain = 0
KES1 141657Z 01003KT 30/20 A3014 RMK A01 T03020197  RH  053%=      5-min Rain = 0
KES1 141658Z 02005KT 31/20 A3015 RMK A01 T03050195  RH  052%=      5-min Rain = 0
KES1 141659Z 03004KT 30/20 A3015 RMK A01 T03040195  RH  052%=      5-min Rain = 0
KES1 141700Z 01005KT 31/20 A3015 RMK A01 T03050197  RH  052%=      5-min Rain = 0
KES1 141701Z 36008KT 31/20 A3015 RMK A01 T03070196  RH  051%=      5-min Rain = 0
KES1 141702Z 01006KT 31/19 A3015 RMK A01 T03060192  RH  051%=      5-min Rain = 0
KES1 141703Z 36003KT 30/19 A3015 RMK A01 T03030192  RH  051%=      5-min Rain = 0
KES1 141704Z 33006KT 30/20 A3015 RMK A01 T03010195  RH  053%=      5-min Rain = 0
KES1 141705Z 35009KT 30/19 A3015 RMK A01 T03010194  RH  053%=      5-min Rain = 0
KES1 141706Z 35007KT 30/19 A3015 RMK A01 T03010193  RH  052%=      5-min Rain = 0
KES1 141707Z 36005KT 30/19 A3015 RMK A01 T02970191  RH  053%=      5-min Rain = 0
KES1 141708Z 36007KT 30/19 A3014 RMK A01 T02960194  RH  054%=      5-min Rain = 0
KES1 141709Z 00008KT 30/19 A3014 RMK A01 T02980192  RH  053%=      5-min Rain = 0
KES1 141710Z 00007KT 30/19 A3014 RMK A01 T02980192  RH  053%=      5-min Rain = 0
KES1 141711Z 35007KT 30/19 A3014 RMK A01 T02980192  RH  053%=      5-min Rain = 0
KES1 141712Z 35006KT 30/19 A3014 RMK A01 T03000194  RH  053%=      5-min Rain = 0
KES1 141713Z 33009KT 30/19 A3014 RMK A01 T03020194  RH  053%=      5-min Rain = 0
KES1 141714Z 30007KT 30/20 A3014 RMK A01 T03030195  RH  053%=      5-min Rain = 0
KES1 141715Z 33008KT 31/20 A3014 RMK A01 T03050196  RH  052%=      5-min Rain = 0
KES1 141716Z 34009KT 31/19 A3014 RMK A01 T03050193  RH  051%=      5-min Rain = 0
KES1 141717Z 33007KT 30/19 A3014 RMK A01 T03040194  RH  052%=      5-min Rain = 0
KES1 141718Z 34008KT 30/19 A3014 RMK A01 T03030194  RH  052%=      5-min Rain = 0
KES1 141719Z 34009KT 30/19 A3015 RMK A01 T03030193  RH  052%=      5-min Rain = 0
KES1 141720Z 35007KT 30/19 A3015 RMK A01 T03000191  RH  052%=      5-min Rain = 0
KES1 141721Z 35007KT 30/19 A3015 RMK A01 T03000192  RH  053%=      5-min Rain = 0
KES1 141722Z 35007KT 30/19 A3014 RMK A01 T03000189  RH  051%=      5-min Rain = 0
KES1 141723Z 35006KT 30/19 A3014 RMK A01 T03000189  RH  051%=      5-min Rain = 0
KES1 141724Z 34006KT 30/19 A3014 RMK A01 T02990188  RH  051%=      5-min Rain = 0
KES1 141725Z 34005KT 30/19 A3014 RMK A01 T02990190  RH  052%=      5-min Rain = 0
KES1 141726Z 35005KT 30/19 A3014 RMK A01 T02980191  RH  052%=      5-min Rain = 0
KES1 141727Z 31005KT 30/19 A3014 RMK A01 T03000190  RH  052%=      5-min Rain = 0
KES1 141728Z 31006KT 30/19 A3014 RMK A01 T03000190  RH  052%=      5-min Rain = 0
KES1 141729Z 32004KT 30/19 A3014 RMK A01 T03010188  RH  051%=      5-min Rain = 0
KES1 141730Z 30006KT 30/19 A3014 RMK A01 T03020190  RH  051%=      5-min Rain = 0
KES1 141731Z 32007KT 30/19 A3014 RMK A01 T03040192  RH  051%=      5-min Rain = 0
KES1 141732Z 33010KT 31/20 A3014 RMK A01 T03060195  RH  052%=      5-min Rain = 0
KES1 141733Z 33009KT 31/20 A3014 RMK A01 T03070196  RH  051%=      5-min Rain = 0
KES1 141734Z 32009KT 31/20 A3014 RMK A01 T03070195  RH  051%=      5-min Rain = 0
KES1 141735Z 33009KT 31/20 A3014 RMK A01 T03070195  RH  051%=      5-min Rain = 0
KES1 141736Z 32009KT 31/19 A3014 RMK A01 T03060194  RH  051%=      5-min Rain = 0
KES1 141737Z 32009KT 31/19 A3014 RMK A01 T03050193  RH  051%=      5-min Rain = 0
KES1 141738Z 31009KT 31/20 A3013 RMK A01 T03050196  RH  052%=      5-min Rain = 0
KES1 141739Z 32010KT 31/20 A3013 RMK A01 T03090199  RH  052%=      5-min Rain = 0
KES1 141740Z 33010KT 31/19 A3014 RMK A01 T03110194  RH  050%=      5-min Rain = 0
KES1 141741Z 33008KT 31/19 A3014 RMK A01 T03080194  RH  051%=      5-min Rain = 0
KES1 141742Z 32007KT 31/20 A3013 RMK A01 T03070197  RH  052%=      5-min Rain = 0
KES1 141743Z 33005KT 31/20 A3013 RMK A01 T03100197  RH  051%=      5-min Rain = 0
KES1 141744Z 34006KT 31/20 A3013 RMK A01 T03120196  RH  050%=      5-min Rain = 0
KES1 141745Z 32008KT 31/20 A3013 RMK A01 T03130198  RH  050%=      5-min Rain = 0
KES1 141746Z 32008KT 31/20 A3013 RMK A01 T03140199  RH  051%=      5-min Rain = 0
KES1 141747Z 33009KT 32/20 A3013 RMK A01 T03150198  RH  050%=      5-min Rain = 0
KES1 141748Z 32007KT 31/20 A3013 RMK A01 T03140197  RH  050%=      5-min Rain = 0
KES1 141749Z 32006KT 31/20 A3013 RMK A01 T03120198  RH  051%=      5-min Rain = 0
KES1 141750Z 35007KT 31/20 A3013 RMK A01 T03100195  RH  050%=      5-min Rain = 0
KES1 141751Z 34007KT 31/20 A3013 RMK A01 T03080196  RH  051%=      5-min Rain = 0
KES1 141752Z 33007KT 31/20 A3013 RMK A01 T03080198  RH  052%=      5-min Rain = 0
KES1 141753Z 35008KT 31/20 A3013 RMK A01 T03120195  RH  050%=      5-min Rain = 0
KES1 141754Z 34007KT 31/19 A3013 RMK A01 T03100194  RH  050%=      5-min Rain = 0
KES1 141755Z 36005KT 31/19 A3013 RMK A01 T03100193  RH  050%=      5-min Rain = 0
KES1 141756Z 01002KT 31/19 A3013 RMK A01 T03090191  RH  049%=      5-min Rain = 0
KES1 141757Z 33001KT 31/19 A3013 RMK A01 T03090193  RH  050%=      5-min Rain = 0
KES1 141758Z 33002KT 31/19 A3013 RMK A01 T03090192  RH  050%=      5-min Rain = 0
KES1 141759Z 33003KT 31/20 A3013 RMK A01 T03100195  RH  050%=      5-min Rain = 0
KES1 141800Z 03005KT 31/20 A3013 RMK A01 T03130195  RH  050%=      5-min Rain = 0
KES1 141801Z 03007KT 32/20 A3013 RMK A01 T03160196  RH  049%=      5-min Rain = 0
KES1 141802Z 02007KT 32/20 A3013 RMK A01 T03190196  RH  048%=      5-min Rain = 0
KES1 141803Z 35006KT 32/19 A3013 RMK A01 T03200194  RH  047%=      5-min Rain = 0
KES1 141804Z 34007KT 32/19 A3013 RMK A01 T03200194  RH  047%=      5-min Rain = 0
KES1 141805Z 32007KT 32/19 A3013 RMK A01 T03180193  RH  048%=      5-min Rain = 0
KES1 141806Z 34009KT 32/20 A3013 RMK A01 T03180195  RH  048%=      5-min Rain = 0
KES1 141807Z 01008KT 32/20 A3013 RMK A01 T03190195  RH  048%=      5-min Rain = 0
KES1 141808Z 02008KT 32/19 A3013 RMK A01 T03180194  RH  048%=      5-min Rain = 0
KES1 141809Z 02009KT 32/20 A3013 RMK A01 T03150195  RH  049%=      5-min Rain = 0
KES1 141810Z 34009KT 32/19 A3013 RMK A01 T03150193  RH  048%=      5-min Rain = 0
KES1 141811Z 34006KT 31/19 A3013 RMK A01 T03130192  RH  048%=      5-min Rain = 0
KES1 141812Z 35004KT 31/19 A3013 RMK A01 T03120193  RH  049%=      5-min Rain = 0
KES1 141813Z 34004KT 31/19 A3013 RMK A01 T03110193  RH  049%=      5-min Rain = 0
KES1 141814Z 29004KT 31/19 A3013 RMK A01 T03130193  RH  049%=      5-min Rain = 0
KES1 141815Z 31001KT 31/19 A3012 RMK A01 T03130193  RH  049%=      5-min Rain = 0
KES1 141816Z 29003KT 31/19 A3012 RMK A01 T03140193  RH  049%=      5-min Rain = 0
KES1 141817Z 32004KT 31/19 A3012 RMK A01 T03140194  RH  049%=      5-min Rain = 0
KES1 141818Z 33009KT 32/20 A3012 RMK A01 T03160195  RH  049%=      5-min Rain = 0
KES1 141819Z 34009KT 32/19 A3012 RMK A01 T03170193  RH  048%=      5-min Rain = 0
KES1 141820Z 34007KT 32/19 A3012 RMK A01 T03160194  RH  048%=      5-min Rain = 0
KES1 141821Z 34006KT 32/19 A3012 RMK A01 T03150193  RH  048%=      5-min Rain = 0
KES1 141822Z 33007KT 32/19 A3012 RMK A01 T03150194  RH  049%=      5-min Rain = 0
KES1 141823Z 33005KT 32/19 A3012 RMK A01 T03150194  RH  049%=      5-min Rain = 0
KES1 141824Z 32002KT 31/19 A3012 RMK A01 T03140193  RH  048%=      5-min Rain = 0
KES1 141825Z 35005G11KT 32/20 A3012 RMK A01 T03150196  RH  049%=      5-min Rain = 0
KES1 141826Z 00009KT 32/19 A3012 RMK A01 T03180193  RH  048%=      5-min Rain = 0
KES1 141827Z 01008KT 32/20 A3012 RMK A01 T03190195  RH  048%=      5-min Rain = 0
KES1 141828Z 03005KT 32/19 A3012 RMK A01 T03200193  RH  047%=      5-min Rain = 0
KES1 141829Z 10002KT 32/19 A3011 RMK A01 T03180192  RH  047%=      5-min Rain = 0
KES1 141830Z 33003KT 32/19 A3011 RMK A01 T03160193  RH  048%=      5-min Rain = 0
KES1 141831Z 01010KT 32/19 A3011 RMK A01 T03160192  RH  048%=      5-min Rain = 0
KES1 141832Z 01007KT 32/19 A3011 RMK A01 T03160192  RH  048%=      5-min Rain = 0
KES1 141833Z 01008KT 32/19 A3011 RMK A01 T03170193  RH  048%=      5-min Rain = 0
KES1 141834Z 00008KT 32/19 A3011 RMK A01 T03180190  RH  047%=      5-min Rain = 0
KES1 141835Z 35007G13KT 32/19 A3011 RMK A01 T03170191  RH  047%=      5-min Rain = 0
KES1 141836Z 02010KT 32/19 A301 RMK A01 T03170194  RH  048%=      5-min Rain = 0
KES1 141837Z 09010KT 32/20 A301 RMK A01 T03180195  RH  048%=      5-min Rain = 0
KES1 141838Z 11006KT 32/19 A301 RMK A01 T03180193  RH  048%=      5-min Rain = 0
KES1 141839Z 07010KT 32/19 A3011 RMK A01 T03160193  RH  048%=      5-min Rain = 0
KES1 141840Z 05009KT 32/19 A3011 RMK A01 T03160193  RH  048%=      5-min Rain = 0
KES1 141841Z 04007KT 32/19 A3011 RMK A01 T03180194  RH  048%=      5-min Rain = 0
KES1 141842Z 05008KT 32/19 A3011 RMK A01 T03190191  RH  047%=      5-min Rain = 0
KES1 141843Z 06005KT 32/20 A3011 RMK A01 T03210196  RH  048%=      5-min Rain = 0
KES1 141844Z 07006KT 33/19 A3011 RMK A01 T03270194  RH  045%=      5-min Rain = 0
KES1 141845Z 07005KT 33/19 A301 RMK A01 T03280191  RH  044%=      5-min Rain = 0
KES1 141846Z 08006KT 33/19 A301 RMK A01 T03280192  RH  045%=      5-min Rain = 0
KES1 141847Z 09003KT 33/18 A301 RMK A01 T03260183  RH  043%=      5-min Rain = 0
KES1 141848Z 09003KT 32/18 A301 RMK A01 T03230182  RH  043%=      5-min Rain = 0
KES1 141849Z 09002KT 32/18 A301 RMK A01 T03210182  RH  043%=      5-min Rain = 0
KES1 141850Z 12002KT 32/18 A301 RMK A01 T03190183  RH  044%=      5-min Rain = 0
KES1 141851Z 13005KT 32/19 A301 RMK A01 T03200187  RH  045%=      5-min Rain = 0
KES1 141852Z 05006KT 32/19 A301 RMK A01 T03220189  RH  046%=      5-min Rain = 0
KES1 141853Z 01008KT 32/19 A301 RMK A01 T03220191  RH  046%=      5-min Rain = 0
KES1 141854Z 02006KT 32/19 A301 RMK A01 T03210189  RH  046%=      5-min Rain = 0
KES1 141855Z 04006KT 32/19 A301 RMK A01 T03200190  RH  046%=      5-min Rain = 0
KES1 141856Z 06006KT 32/18 A301 RMK A01 T03210183  RH  044%=      5-min Rain = 0
KES1 141857Z 10006KT 32/18 A301 RMK A01 T03200179  RH  043%=      5-min Rain = 0
KES1 141858Z 10004KT 32/18 A301 RMK A01 T03190180  RH  044%=      5-min Rain = 0
KES1 141859Z 10004KT 32/19 A301 RMK A01 T03200185  RH  045%=      5-min Rain = 0
KES1 141900Z 10005KT 32/18 A301 RMK A01 T03230183  RH  043%=      5-min Rain = 0
KES1 141901Z 11003KT 32/18 A301 RMK A01 T03230180  RH  043%=      5-min Rain = 0
KES1 141902Z 08005KT 32/18 A301 RMK A01 T03220183  RH  044%=      5-min Rain = 0
KES1 141903Z 08004KT 32/18 A301 RMK A01 T03230181  RH  043%=      5-min Rain = 0
KES1 141904Z 07008KT 32/18 A301 RMK A01 T03230183  RH  043%=      5-min Rain = 0
KES1 141905Z 07009KT 32/18 A301 RMK A01 T03230184  RH  044%=      5-min Rain = 0
KES1 141906Z 08007KT 32/18 A301 RMK A01 T03230183  RH  043%=      5-min Rain = 0
KES1 141907Z 06008KT 32/19 A301 RMK A01 T03220185  RH  044%=      5-min Rain = 0
KES1 141908Z 06005KT 32/18 A301 RMK A01 T03220183  RH  044%=      5-min Rain = 0
KES1 141909Z 05004KT 32/18 A301 RMK A01 T03210183  RH  044%=      5-min Rain = 0
KES1 141910Z 02007KT 32/18 A301 RMK A01 T03200184  RH  045%=      5-min Rain = 0
KES1 141911Z 02007KT 32/18 A301 RMK A01 T03210183  RH  044%=      5-min Rain = 0
KES1 141912Z 04006KT 32/18 A301 RMK A01 T03210183  RH  044%=      5-min Rain = 0
KES1 141913Z 05008KT 32/19 A301 RMK A01 T03230185  RH  044%=      5-min Rain = 0
KES1 141914Z 06009KT 33/18 A301 RMK A01 T03270183  RH  043%=      5-min Rain = 0
KES1 141915Z 06008KT 33/18 A301 RMK A01 T03290183  RH  042%=      5-min Rain = 0
KES1 141916Z 06006KT 33/19 A301 RMK A01 T03320189  RH  043%=      5-min Rain = 0
KES1 141917Z 09005KT 34/18 A301 RMK A01 T03370184  RH  041%=      5-min Rain = 0
KES1 141918Z 06005KT 33/18 A301 RMK A01 T03340182  RH  041%=      5-min Rain = 0
KES1 141919Z 06004KT 33/18 A301 RMK A01 T03300179  RH  041%=      5-min Rain = 0
KES1 141920Z 11004KT 33/18 A301 RMK A01 T03300181  RH  041%=      5-min Rain = 0
KES1 141921Z 08004KT 33/18 A301 RMK A01 T03290178  RH  041%=      5-min Rain = 0
KES1 141922Z 12002KT 33/18 A301 RMK A01 T03300179  RH  041%=      5-min Rain = 0
KES1 141923Z 16002KT 33/18 A301 RMK A01 T03330184  RH  041%=      5-min Rain = 0
KES1 141924Z 33002KT 34/18 A301 RMK A01 T03350183  RH  041%=      5-min Rain = 0
KES1 141925Z 34004KT 34/18 A301 RMK A01 T03360181  RH  040%=      5-min Rain = 0
KES1 141926Z 35004KT 34/18 A301 RMK A01 T03360179  RH  039%=      5-min Rain = 0
KES1 141927Z 36003KT 33/18 A301 RMK A01 T03330178  RH  040%=      5-min Rain = 0
KES1 141928Z 35003KT 33/18 A301 RMK A01 T03280180  RH  041%=      5-min Rain = 0
KES1 141929Z 34003KT 33/18 A3009 RMK A01 T03260180  RH  042%=      5-min Rain = 0
KES1 141930Z 30003KT 33/18 A3009 RMK A01 T03260179  RH  042%=      5-min Rain = 0
KES1 141931Z 30002KT 33/18 A3009 RMK A01 T03260180  RH  042%=      5-min Rain = 0
KES1 141932Z 34001KT 33/18 A3009 RMK A01 T03270181  RH  042%=      5-min Rain = 0
KES1 141933Z 22002KT 33/18 A3009 RMK A01 T03290182  RH  042%=      5-min Rain = 0
KES1 141934Z 31002KT 33/18 A3009 RMK A01 T03310182  RH  041%=      5-min Rain = 0
KES1 141935Z 09003KT 33/18 A3009 RMK A01 T03310184  RH  042%=      5-min Rain = 0
KES1 141936Z 14004KT 33/18 A3009 RMK A01 T03320184  RH  042%=      5-min Rain = 0
KES1 141937Z 11005KT 33/19 A3009 RMK A01 T03310185  RH  042%=      5-min Rain = 0
KES1 141938Z 11005KT 33/18 A3009 RMK A01 T03290183  RH  042%=      5-min Rain = 0
KES1 141939Z 12004KT 33/18 A3009 RMK A01 T03270184  RH  043%=      5-min Rain = 0
KES1 141940Z 06003KT 33/19 A3009 RMK A01 T03280186  RH  043%=      5-min Rain = 0
KES1 141941Z 06003KT 33/18 A3009 RMK A01 T03300184  RH  042%=      5-min Rain = 0
KES1 141942Z 08006KT 33/19 A3009 RMK A01 T03310185  RH  042%=      5-min Rain = 0
KES1 141943Z 07004KT 33/19 A3009 RMK A01 T03320185  RH  042%=      5-min Rain = 0
KES1 141944Z 03002KT 34/19 A3008 RMK A01 T03360187  RH  041%=      5-min Rain = 0
KES1 141945Z 01005KT 34/18 A3008 RMK A01 T03390184  RH  040%=      5-min Rain = 0
KES1 141946Z 04006KT 34/18 A3008 RMK A01 T03390183  RH  040%=      5-min Rain = 0
KES1 141947Z 00004KT 34/18 A3008 RMK A01 T03370179  RH  039%=      5-min Rain = 0
KES1 141948Z 35005KT 33/18 A3008 RMK A01 T03340179  RH  040%=      5-min Rain = 0
KES1 141949Z 02005KT 33/18 A3008 RMK A01 T03330180  RH  040%=      5-min Rain = 0
KES1 141950Z 04003KT 33/18 A3008 RMK A01 T03340180  RH  040%=      5-min Rain = 0
KES1 141951Z 02002KT 33/18 A3008 RMK A01 T03320178  RH  040%=      5-min Rain = 0
KES1 141952Z 34002KT 33/18 A3008 RMK A01 T03300177  RH  040%=      5-min Rain = 0
KES1 141953Z 29001KT 33/18 A3008 RMK A01 T03280176  RH  040%=      5-min Rain = 0
KES1 141954Z 02002G7KT 33/18 A3008 RMK A01 T03280179  RH  041%=      5-min Rain = 0
KES1 141955Z 05006KT 33/18 A3008 RMK A01 T03290179  RH  041%=      5-min Rain = 0
KES1 141956Z 07003KT 33/18 A3008 RMK A01 T03320181  RH  041%=      5-min Rain = 0
KES1 141957Z 13003KT 34/18 A3008 RMK A01 T03350179  RH  040%=      5-min Rain = 0
KES1 141958Z 15004KT 34/18 A3008 RMK A01 T03350180  RH  040%=      5-min Rain = 0
KES1 141959Z 05003KT 34/18 A3008 RMK A01 T03370182  RH  040%=      5-min Rain = 0
KES1 142000Z 11006KT 34/18 A3008 RMK A01 T03390182  RH  040%=      5-min Rain = 0
KES1 142001Z 10009KT 34/18 A3008 RMK A01 T03370181  RH  040%=      5-min Rain = 0
KES1 142002Z 10009KT 34/18 A3008 RMK A01 T03350182  RH  040%=      5-min Rain = 0
KES1 142003Z 11006KT 33/18 A3008 RMK A01 T03330181  RH  040%=      5-min Rain = 0
KES1 142004Z 15004KT 33/18 A3007 RMK A01 T03320181  RH  041%=      5-min Rain = 0
KES1 142005Z 19002KT 33/18 A3007 RMK A01 T03310179  RH  040%=      5-min Rain = 0
KES1 142006Z 14004G10KT 33/18 A3007 RMK A01 T03310181  RH  041%=      5-min Rain = 0
KES1 142007Z 10009KT 33/18 A3007 RMK A01 T03340183  RH  041%=      5-min Rain = 0
KES1 142008Z 05010KT 34/18 A3007 RMK A01 T03350183  RH  040%=      5-min Rain = 0
KES1 142009Z 05008KT 34/18 A3007 RMK A01 T03350181  RH  040%=      5-min Rain = 0
KES1 142010Z 04004KT 33/18 A3007 RMK A01 T03330182  RH  041%=      5-min Rain = 0
KES1 142011Z 10006KT 33/19 A3007 RMK A01 T03340185  RH  041%=      5-min Rain = 0
KES1 142012Z 11006KT 34/18 A3007 RMK A01 T03360181  RH  040%=      5-min Rain = 0
KES1 142013Z 11005KT 33/18 A3007 RMK A01 T03330181  RH  040%=      5-min Rain = 0
KES1 142014Z 10004KT 33/18 A3007 RMK A01 T03330180  RH  040%=      5-min Rain = 0
KES1 142015Z 11003KT 33/18 A3007 RMK A01 T03300178  RH  040%=      5-min Rain = 0
KES1 142016Z 11004KT 33/18 A3007 RMK A01 T03290178  RH  041%=      5-min Rain = 0
KES1 142017Z 15001KT 33/18 A3007 RMK A01 T03290175  RH  040%=      5-min Rain = 0
KES1 142018Z 00000KT 33/18 A3006 RMK A01 T03290175  RH  040%=      5-min Rain = 0
KES1 142019Z 20000KT 33/18 A3006 RMK A01 T03300175  RH  040%=      5-min Rain = 0
KES1 142020Z 14003KT 33/18 A3006 RMK A01 T03330176  RH  039%=      5-min Rain = 0
KES1 142021Z 18005KT 34/18 A3006 RMK A01 T03360177  RH  039%=      5-min Rain = 0
KES1 142022Z 21004KT 34/18 A3006 RMK A01 T03360178  RH  039%=      5-min Rain = 0
KES1 142023Z 09005KT 34/18 A3006 RMK A01 T03380180  RH  039%=      5-min Rain = 0
KES1 142024Z 10004KT 34/18 A3006 RMK A01 T03380181  RH  039%=      5-min Rain = 0
KES1 142025Z 10005KT 34/18 A3006 RMK A01 T03370179  RH  039%=      5-min Rain = 0
KES1 142026Z 12003KT 34/18 A3006 RMK A01 T03350180  RH  040%=      5-min Rain = 0
KES1 142027Z 11009G14KT 34/18 A3006 RMK A01 T03370184  RH  040%=      5-min Rain = 0
KES1 142028Z 10009KT 34/18 A3006 RMK A01 T03410184  RH  040%=      5-min Rain = 0
KES1 142029Z 12006KT 34/18 A3006 RMK A01 T03410184  RH  040%=      5-min Rain = 0
KES1 142030Z 12006KT 34/19 A3006 RMK A01 T03410189  RH  041%=      5-min Rain = 0
KES1 142031Z 07006KT 34/19 A3006 RMK A01 T03440185  RH  039%=      5-min Rain = 0
KES1 142032Z 07003KT 35/18 A3006 RMK A01 T03450184  RH  039%=      5-min Rain = 0
KES1 142033Z 13003KT 35/18 A3005 RMK A01 T03450183  RH  039%=      5-min Rain = 0
KES1 142034Z 08002KT 34/18 A3005 RMK A01 T03440182  RH  038%=      5-min Rain = 0
KES1 142035Z 06002KT 34/18 A3005 RMK A01 T03420181  RH  039%=      5-min Rain = 0
KES1 142036Z 06005KT 34/18 A3005 RMK A01 T03430183  RH  039%=      5-min Rain = 0
KES1 142037Z 08007KT 35/19 A3005 RMK A01 T03470187  RH  039%=      5-min Rain = 0
KES1 142038Z 09006KT 35/18 A3005 RMK A01 T03480182  RH  037%=      5-min Rain = 0
KES1 142039Z 11003KT 34/18 A3005 RMK A01 T03430179  RH  038%=      5-min Rain = 0
KES1 142040Z 10006KT 34/18 A3005 RMK A01 T03420181  RH  039%=      5-min Rain = 0
KES1 142041Z 10006KT 34/18 A3005 RMK A01 T03420180  RH  038%=      5-min Rain = 0
KES1 142042Z 06003KT 34/18 A3005 RMK A01 T03400179  RH  039%=      5-min Rain = 0
KES1 142043Z 04001KT 34/18 A3005 RMK A01 T03380177  RH  038%=      5-min Rain = 0
KES1 142044Z 05002KT 34/18 A3005 RMK A01 T03390178  RH  039%=      5-min Rain = 0
KES1 142045Z 05002KT 34/18 A3005 RMK A01 T03410179  RH  038%=      5-min Rain = 0
KES1 142046Z 00001KT 34/18 A3005 RMK A01 T03420180  RH  038%=      5-min Rain = 0
KES1 142047Z 26001KT 34/18 A3005 RMK A01 T03440182  RH  038%=      5-min Rain = 0
KES1 142048Z 01000KT 35/18 A3005 RMK A01 T03460182  RH  038%=      5-min Rain = 0
KES1 142049Z 14003KT 35/18 A3005 RMK A01 T03480182  RH  038%=      5-min Rain = 0
KES1 142050Z 15005KT 35/18 A3005 RMK A01 T03460183  RH  038%=      5-min Rain = 0
KES1 142051Z 14007KT 34/19 A3005 RMK A01 T03440185  RH  039%=      5-min Rain = 0
KES1 142052Z 13006KT 35/18 A3005 RMK A01 T03460184  RH  039%=      5-min Rain = 0
KES1 142053Z 12010KT 35/18 A3005 RMK A01 T03460184  RH  038%=      5-min Rain = 0
KES1 142054Z 06009KT 35/18 A3005 RMK A01 T03460183  RH  038%=      5-min Rain = 0
KES1 142055Z 07008KT 35/18 A3005 RMK A01 T03470182  RH  038%=      5-min Rain = 0
KES1 142056Z 08008KT 35/18 A3005 RMK A01 T03470184  RH  038%=      5-min Rain = 0
KES1 142057Z 08009KT 35/18 A3005 RMK A01 T03450182  RH  038%=      5-min Rain = 0
KES1 142058Z 10008KT 34/18 A3005 RMK A01 T03430183  RH  039%=      5-min Rain = 0
KES1 142059Z 09006KT 34/18 A3005 RMK A01 T03430181  RH  038%=      5-min Rain = 0
KES1 142100Z 08005KT 34/18 A3005 RMK A01 T03430184  RH  039%=      5-min Rain = 0
KES1 142101Z 03003KT 35/18 A3005 RMK A01 T03450184  RH  039%=      5-min Rain = 0
KES1 142102Z 07001KT 35/19 A3004 RMK A01 T03470185  RH  038%=      5-min Rain = 0
KES1 142103Z 04002KT 35/18 A3004 RMK A01 T03480182  RH  037%=      5-min Rain = 0
KES1 142104Z 19001KT 35/18 A3004 RMK A01 T03480181  RH  037%=      5-min Rain = 0
KES1 142105Z 08005KT 35/18 A3004 RMK A01 T03480183  RH  038%=      5-min Rain = 0
KES1 142106Z 04004KT 35/18 A3004 RMK A01 T03480177  RH  036%=      5-min Rain = 0
KES1 142107Z 06002KT 35/18 A3004 RMK A01 T03460177  RH  037%=      5-min Rain = 0
KES1 142108Z 07006KT 35/18 A3004 RMK A01 T03480181  RH  037%=      5-min Rain = 0
KES1 142109Z 07006KT 35/18 A3004 RMK A01 T03490178  RH  036%=      5-min Rain = 0
KES1 142110Z 06006KT 35/18 A3004 RMK A01 T03470180  RH  037%=      5-min Rain = 0
KES1 142111Z 05006KT 35/18 A3004 RMK A01 T03470182  RH  038%=      5-min Rain = 0
KES1 142112Z 06006KT 35/18 A3004 RMK A01 T03480180  RH  037%=      5-min Rain = 0
KES1 142113Z 04003KT 35/18 A3004 RMK A01 T03480176  RH  036%=      5-min Rain = 0
KES1 142114Z 01003KT 35/18 A3004 RMK A01 T03470175  RH  036%=      5-min Rain = 0
KES1 142115Z 01003KT 34/17 A3004 RMK A01 T03440174  RH  036%=      5-min Rain = 0
KES1 142116Z 04002KT 34/17 A3004 RMK A01 T03420174  RH  037%=      5-min Rain = 0
KES1 142117Z 01003KT 34/17 A3004 RMK A01 T03410174  RH  037%=      5-min Rain = 0
KES1 142118Z 29003KT 34/18 A3004 RMK A01 T03420175  RH  037%=      5-min Rain = 0
KES1 142119Z 30003KT 34/18 A3003 RMK A01 T03420178  RH  038%=      5-min Rain = 0
KES1 142120Z 00003KT 34/18 A3004 RMK A01 T03440180  RH  038%=      5-min Rain = 0
KES1 142121Z 03006KT 35/18 A3004 RMK A01 T03480181  RH  037%=      5-min Rain = 0
KES1 142122Z 04007KT 35/18 A3004 RMK A01 T03500181  RH  037%=      5-min Rain = 0
KES1 142123Z 03006KT 35/18 A3004 RMK A01 T03510180  RH  036%=      5-min Rain = 0
KES1 142124Z 05003KT 35/18 A3004 RMK A01 T03490178  RH  036%=      5-min Rain = 0
KES1 142125Z 02001KT 35/18 A3003 RMK A01 T03460177  RH  037%=      5-min Rain = 0
KES1 142126Z 03004KT 35/18 A3003 RMK A01 T03450175  RH  037%=      5-min Rain = 0
KES1 142127Z 02006KT 34/17 A3003 RMK A01 T03440172  RH  036%=      5-min Rain = 0
KES1 142128Z 04008KT 35/17 A3003 RMK A01 T03450174  RH  036%=      5-min Rain = 0
KES1 142129Z 06006KT 35/18 A3003 RMK A01 T03470177  RH  037%=      5-min Rain = 0
KES1 142130Z 10005KT 35/18 A3003 RMK A01 T03450176  RH  037%=      5-min Rain = 0
KES1 142131Z 10005KT 34/18 A3003 RMK A01 T03440179  RH  038%=      5-min Rain = 0
KES1 142132Z 01003KT 35/18 A3003 RMK A01 T03460179  RH  037%=      5-min Rain = 0
KES1 142133Z 06005KT 35/18 A3003 RMK A01 T03480180  RH  037%=      5-min Rain = 0
KES1 142134Z 06009KT 35/18 A3003 RMK A01 T03490178  RH  036%=      5-min Rain = 0
KES1 142135Z 07009KT 35/17 A3003 RMK A01 T03480173  RH  035%=      5-min Rain = 0
KES1 142136Z 07009KT 35/17 A3003 RMK A01 T03470172  RH  035%=      5-min Rain = 0
KES1 142137Z 06008KT 35/17 A3003 RMK A01 T03460171  RH  036%=      5-min Rain = 0
KES1 142138Z 06005KT 35/17 A3003 RMK A01 T03450173  RH  036%=      5-min Rain = 0
KES1 142139Z 05002KT 35/17 A3003 RMK A01 T03450171  RH  036%=      5-min Rain = 0
KES1 142140Z 04003KT 35/17 A3003 RMK A01 T03450169  RH  035%=      5-min Rain = 0
KES1 142141Z 03006KT 35/17 A3003 RMK A01 T03460174  RH  036%=      5-min Rain = 0
KES1 142142Z 02006KT 35/18 A3003 RMK A01 T03480176  RH  036%=      5-min Rain = 0
KES1 142143Z 01004KT 35/17 A3003 RMK A01 T03490171  RH  035%=      5-min Rain = 0
KES1 142144Z 02003KT 34/17 A3003 RMK A01 T03440171  RH  036%=      5-min Rain = 0
KES1 142145Z 01002KT 34/17 A3003 RMK A01 T03430173  RH  036%=      5-min Rain = 0
KES1 142146Z 03005KT 34/18 A3003 RMK A01 T03430175  RH  037%=      5-min Rain = 0
KES1 142147Z 02004KT 35/18 A3003 RMK A01 T03450175  RH  037%=      5-min Rain = 0
KES1 142148Z 36003KT 35/18 A3003 RMK A01 T03460176  RH  036%=      5-min Rain = 0
KES1 142149Z 00002KT 35/17 A3003 RMK A01 T03460173  RH  036%=      5-min Rain = 0
KES1 142150Z 05004KT 35/18 A3003 RMK A01 T03470177  RH  036%=      5-min Rain = 0
KES1 142151Z 04007KT 35/18 A3003 RMK A01 T03490178  RH  036%=      5-min Rain = 0
KES1 142152Z 04005KT 35/18 A3003 RMK A01 T03500178  RH  036%=      5-min Rain = 0
KES1 142153Z 02002KT 35/18 A3003 RMK A01 T03510178  RH  036%=      5-min Rain = 0
KES1 142154Z 01004KT 35/18 A3003 RMK A01 T03530181  RH  036%=      5-min Rain = 0
KES1 142155Z 36005KT 36/18 A3002 RMK A01 T03550178  RH  035%=      5-min Rain = 0
KES1 142156Z 02006KT 35/18 A3002 RMK A01 T03520178  RH  036%=      5-min Rain = 0
KES1 142157Z 00005KT 35/18 A3002 RMK A01 T03520178  RH  036%=      5-min Rain = 0
KES1 142158Z 05006KT 35/18 A3002 RMK A01 T03510178  RH  036%=      5-min Rain = 0
KES1 142159Z 08007KT 35/18 A3002 RMK A01 T03500180  RH  037%=      5-min Rain = 0
KES1 142200Z 07007KT 35/18 A3002 RMK A01 T03480177  RH  036%=      5-min Rain = 0
KES1 142201Z 05003KT 35/18 A3002 RMK A01 T03450175  RH  037%=      5-min Rain = 0
KES1 142202Z 34003KT 34/18 A3002 RMK A01 T03420176  RH  037%=      5-min Rain = 0
KES1 142203Z 02003KT 34/18 A3002 RMK A01 T03430177  RH  037%=      5-min Rain = 0
KES1 142204Z 11005KT 35/18 A3002 RMK A01 T03450181  RH  038%=      5-min Rain = 0
KES1 142205Z 10006KT 35/18 A3002 RMK A01 T03500182  RH  037%=      5-min Rain = 0
KES1 142206Z 07004KT 35/18 A3002 RMK A01 T03510179  RH  036%=      5-min Rain = 0
KES1 142207Z 05002KT 35/18 A3002 RMK A01 T03500180  RH  037%=      5-min Rain = 0
KES1 142208Z 05005KT 35/18 A3002 RMK A01 T03510179  RH  036%=      5-min Rain = 0
KES1 142209Z 04009KT 35/18 A3002 RMK A01 T03530176  RH  035%=      5-min Rain = 0
KES1 142210Z 04006KT 35/17 A3002 RMK A01 T03530174  RH  035%=      5-min Rain = 0
KES1 142211Z 03005KT 35/17 A3002 RMK A01 T03520174  RH  035%=      5-min Rain = 0
KES1 142212Z 05007KT 35/18 A3002 RMK A01 T03520178  RH  036%=      5-min Rain = 0
KES1 142213Z 05006KT 35/17 A3002 RMK A01 T03520173  RH  035%=      5-min Rain = 0
KES1 142214Z 03004KT 35/17 A3002 RMK A01 T03490172  RH  035%=      5-min Rain = 0
KES1 142215Z 06005KT 35/17 A3002 RMK A01 T03480173  RH  036%=      5-min Rain = 0
KES1 142216Z 04007KT 35/17 A3002 RMK A01 T03480173  RH  036%=      5-min Rain = 0
KES1 142217Z 04006KT 35/17 A3002 RMK A01 T03490173  RH  035%=      5-min Rain = 0
KES1 142218Z 03005KT 35/17 A3002 RMK A01 T03480172  RH  035%=      5-min Rain = 0
KES1 142219Z 04005KT 35/17 A3002 RMK A01 T03470173  RH  036%=      5-min Rain = 0
KES1 142220Z 03003KT 35/18 A3002 RMK A01 T03480175  RH  036%=      5-min Rain = 0
KES1 142221Z 07006KT 35/17 A3002 RMK A01 T03500174  RH  035%=      5-min Rain = 0
KES1 142222Z 10006KT 35/18 A3002 RMK A01 T03500175  RH  035%=      5-min Rain = 0
KES1 142223Z 10008KT 35/17 A3002 RMK A01 T03510173  RH  035%=      5-min Rain = 0
KES1 142224Z 07007KT 35/17 A3002 RMK A01 T03490171  RH  035%=      5-min Rain = 0
KES1 142225Z 08006KT 35/17 A3002 RMK A01 T03460174  RH  036%=      5-min Rain = 0
KES1 142226Z 09007KT 35/18 A3002 RMK A01 T03470175  RH  036%=      5-min Rain = 0
KES1 142227Z 08007KT 35/17 A3002 RMK A01 T03480172  RH  035%=      5-min Rain = 0
KES1 142228Z 07005KT 35/17 A3002 RMK A01 T03450171  RH  036%=      5-min Rain = 0
KES1 142229Z 11005KT 34/17 A3002 RMK A01 T03440173  RH  036%=      5-min Rain = 0
KES1 142230Z 15001KT 34/17 A3002 RMK A01 T03440172  RH  036%=      5-min Rain = 0
KES1 142231Z 20001KT 35/17 A3002 RMK A01 T03450172  RH  036%=      5-min Rain = 0
KES1 142232Z 05002KT 35/17 A3002 RMK A01 T03460174  RH  036%=      5-min Rain = 0
KES1 142233Z 01004KT 35/17 A3002 RMK A01 T03470174  RH  036%=      5-min Rain = 0
KES1 142234Z 02006KT 35/18 A3002 RMK A01 T03470176  RH  036%=      5-min Rain = 0
KES1 142235Z 01007KT 35/18 A3002 RMK A01 T03480175  RH  036%=      5-min Rain = 0
KES1 142236Z 05009KT 35/18 A3002 RMK A01 T03470175  RH  036%=      5-min Rain = 0
KES1 142237Z 07010KT 35/17 A3002 RMK A01 T03480174  RH  036%=      5-min Rain = 0
KES1 142238Z 07010KT 35/17 A3001 RMK A01 T03470173  RH  036%=      5-min Rain = 0
KES1 142239Z 09010KT 35/17 A3002 RMK A01 T03460174  RH  036%=      5-min Rain = 0
KES1 142240Z 08008KT 35/17 A3002 RMK A01 T03460174  RH  036%=      5-min Rain = 0
KES1 142241Z 09007KT 35/17 A3002 RMK A01 T03470174  RH  036%=      5-min Rain = 0
KES1 142242Z 08005KT 35/17 A3002 RMK A01 T03470173  RH  036%=      5-min Rain = 0
KES1 142243Z 08005KT 35/17 A3002 RMK A01 T03470173  RH  036%=      5-min Rain = 0
KES1 142244Z 08005KT 35/17 A3002 RMK A01 T03460171  RH  035%=      5-min Rain = 0
KES1 142245Z 09004KT 35/17 A3002 RMK A01 T03450171  RH  036%=      5-min Rain = 0
KES1 142246Z 10006KT 35/17 A3002 RMK A01 T03450174  RH  036%=      5-min Rain = 0
KES1 142247Z 11006KT 35/17 A3001 RMK A01 T03470173  RH  036%=      5-min Rain = 0
KES1 142248Z 13003KT 35/17 A3001 RMK A01 T03450170  RH  035%=      5-min Rain = 0
KES1 142249Z 12004KT 35/17 A3001 RMK A01 T03450173  RH  036%=      5-min Rain = 0
KES1 142250Z 11005KT 35/17 A3001 RMK A01 T03450173  RH  036%=      5-min Rain = 0
KES1 142251Z 12006KT 35/18 A3001 RMK A01 T03470175  RH  036%=      5-min Rain = 0
KES1 142252Z 12003KT 35/17 A3002 RMK A01 T03460170  RH  035%=      5-min Rain = 0
KES1 142253Z 12002KT 34/17 A3002 RMK A01 T03430170  RH  036%=      5-min Rain = 0
KES1 142254Z 14005KT 34/17 A3002 RMK A01 T03420170  RH  036%=      5-min Rain = 0
KES1 142255Z 15005KT 34/17 A3002 RMK A01 T03430171  RH  036%=      5-min Rain = 0
KES1 142256Z 11005KT 34/17 A3002 RMK A01 T03440173  RH  036%=      5-min Rain = 0
KES1 142257Z 11005KT 35/17 A3002 RMK A01 T03450171  RH  036%=      5-min Rain = 0
KES1 142258Z 07003KT 35/17 A3002 RMK A01 T03450173  RH  036%=      5-min Rain = 0
KES1 142259Z 06002KT 35/17 A3002 RMK A01 T03450172  RH  036%=      5-min Rain = 0
KES1 142300Z 04002KT 35/17 A3002 RMK A01 T03450171  RH  036%=      5-min Rain = 0
KES1 142301Z 05002KT 35/17 A3002 RMK A01 T03460170  RH  035%=      5-min Rain = 0
KES1 142302Z 03001KT 35/17 A3002 RMK A01 T03460169  RH  035%=      5-min Rain = 0
KES1 142303Z 08001KT 35/17 A3002 RMK A01 T03470169  RH  035%=      5-min Rain = 0
KES1 142304Z 07004KT 35/17 A3002 RMK A01 T03470171  RH  035%=      5-min Rain = 0
KES1 142305Z 10005KT 35/17 A3001 RMK A01 T03450174  RH  036%=      5-min Rain = 0
KES1 142306Z 08006KT 35/18 A3001 RMK A01 T03460175  RH  036%=      5-min Rain = 0
KES1 142307Z 07004KT 35/17 A3001 RMK A01 T03470174  RH  036%=      5-min Rain = 0
KES1 142308Z 07004KT 35/18 A3001 RMK A01 T03470175  RH  036%=      5-min Rain = 0
KES1 142309Z 08003KT 35/18 A3001 RMK A01 T03480177  RH  036%=      5-min Rain = 0
KES1 142310Z 09004KT 35/18 A3001 RMK A01 T03500179  RH  036%=      5-min Rain = 0
KES1 142311Z 11006KT 35/18 A3001 RMK A01 T03510175  RH  035%=      5-min Rain = 0
KES1 142312Z 10005KT 35/17 A3001 RMK A01 T03480170  RH  035%=      5-min Rain = 0
KES1 142313Z 10006KT 35/17 A3001 RMK A01 T03450171  RH  036%=      5-min Rain = 0
KES1 142314Z 11007KT 34/17 A3001 RMK A01 T03440170  RH  036%=      5-min Rain = 0
KES1 142315Z 10008KT 34/17 A3001 RMK A01 T03430171  RH  036%=      5-min Rain = 0
KES1 142316Z 09007KT 34/17 A3001 RMK A01 T03430172  RH  036%=      5-min Rain = 0
KES1 142317Z 09009KT 34/17 A3001 RMK A01 T03430172  RH  036%=      5-min Rain = 0
KES1 142318Z 10011KT 34/17 A3001 RMK A01 T03440172  RH  036%=      5-min Rain = 0
KES1 142319Z 09010KT 34/17 A3001 RMK A01 T03430171  RH  036%=      5-min Rain = 0
KES1 142320Z 09008KT 34/17 A3001 RMK A01 T03430171  RH  036%=      5-min Rain = 0
KES1 142321Z 10008KT 34/17 A3001 RMK A01 T03440172  RH  036%=      5-min Rain = 0
KES1 142322Z 10008KT 35/17 A3002 RMK A01 T03450171  RH  036%=      5-min Rain = 0
KES1 142323Z 10006KT 34/17 A3002 RMK A01 T03430169  RH  036%=      5-min Rain = 0
KES1 142324Z 14004KT 34/17 A3001 RMK A01 T03410170  RH  036%=      5-min Rain = 0
KES1 142325Z 13004KT 34/17 A3002 RMK A01 T03420171  RH  036%=      5-min Rain = 0
KES1 142326Z 13005KT 34/17 A3002 RMK A01 T03440170  RH  036%=      5-min Rain = 0
KES1 142327Z 12004KT 34/17 A3002 RMK A01 T03440170  RH  036%=      5-min Rain = 0
KES1 142328Z 10004KT 34/17 A3002 RMK A01 T03440170  RH  036%=      5-min Rain = 0
KES1 142329Z 09006KT 34/17 A3002 RMK A01 T03440169  RH  035%=      5-min Rain = 0
KES1 142330Z 08008KT 34/17 A3002 RMK A01 T03430169  RH  035%=      5-min Rain = 0
KES1 142331Z 10007KT 34/17 A3002 RMK A01 T03430167  RH  035%=      5-min Rain = 0
KES1 142332Z 10007KT 34/17 A3002 RMK A01 T03430167  RH  035%=      5-min Rain = 0
KES1 142333Z 11009KT 34/17 A3002 RMK A01 T03430165  RH  035%=      5-min Rain = 0
KES1 142334Z 11008KT 34/17 A3001 RMK A01 T03430165  RH  035%=      5-min Rain = 0
KES1 142335Z 10006KT 34/16 A3001 RMK A01 T03420164  RH  035%=      5-min Rain = 0
KES1 142336Z 11007KT 34/17 A3002 RMK A01 T03410165  RH  035%=      5-min Rain = 0
KES1 142337Z 08006KT 34/16 A3002 RMK A01 T03430164  RH  034%=      5-min Rain = 0
KES1 142338Z 08008KT 34/16 A3002 RMK A01 T03440163  RH  034%=      5-min Rain = 0
KES1 142339Z 10006KT 34/16 A3002 RMK A01 T03430161  RH  034%=      5-min Rain = 0
KES1 142340Z 10008KT 34/16 A3002 RMK A01 T03420163  RH  034%=      5-min Rain = 0
KES1 142341Z 11006KT 34/16 A3002 RMK A01 T03420163  RH  034%=      5-min Rain = 0
KES1 142342Z 09007KT 34/17 A3002 RMK A01 T03420165  RH  035%=      5-min Rain = 0
KES1 142343Z 09008KT 34/17 A3002 RMK A01 T03420168  RH  036%=      5-min Rain = 0
KES1 142344Z 08008KT 34/17 A3002 RMK A01 T03410168  RH  036%=      5-min Rain = 0
KES1 142345Z 06007KT 34/17 A3002 RMK A01 T03410169  RH  036%=      5-min Rain = 0
KES1 142346Z 07005KT 34/17 A3002 RMK A01 T03420169  RH  036%=      5-min Rain = 0
KES1 142347Z 10006KT 34/17 A3002 RMK A01 T03430169  RH  036%=      5-min Rain = 0
KES1 142348Z 13006KT 34/17 A3002 RMK A01 T03440170  RH  036%=      5-min Rain = 0
KES1 142349Z 12006KT 34/17 A3002 RMK A01 T03440170  RH  036%=      5-min Rain = 0
KES1 142350Z 12006KT 34/17 A3002 RMK A01 T03430169  RH  036%=      5-min Rain = 0
KES1 142351Z 12007KT 34/17 A3002 RMK A01 T03420167  RH  035%=      5-min Rain = 0
KES1 142352Z 10006KT 34/17 A3002 RMK A01 T03410167  RH  035%=      5-min Rain = 0
KES1 142353Z 09005KT 34/17 A3002 RMK A01 T03400168  RH  036%=      5-min Rain = 0
KES1 142354Z 09006KT 34/17 A3002 RMK A01 T03400168  RH  036%=      5-min Rain = 0
KES1 142355Z 09007KT 34/17 A3002 RMK A01 T03400168  RH  036%=      5-min Rain = 0
KES1 142356Z 10008KT 34/17 A3002 RMK A01 T03410168  RH  036%=      5-min Rain = 0
KES1 142357Z 09010KT 34/17 A3002 RMK A01 T03410168  RH  036%=      5-min Rain = 0
KES1 142358Z 09010KT 34/17 A3002 RMK A01 T03410169  RH  036%=      5-min Rain = 0
KES1 142359Z 10010KT 34/17 A3002 RMK A01 T03410169  RH  036%=      5-min Rain = 0
KES1 150000Z 11009KT 34/17 A3002 RMK A01 T03400169  RH  036%=      5-min Rain = 0
KES1 150001Z 11008KT 34/17 A3002 RMK A01 T03390168  RH  036%=      5-min Rain = 0
KES1 150002Z 12007KT 34/17 A3002 RMK A01 T03380167  RH  036%=      5-min Rain = 0
KES1 150003Z 11006KT 34/17 A3002 RMK A01 T03380168  RH  036%=      5-min Rain = 0
KES1 150004Z 11008KT 34/17 A3002 RMK A01 T03380169  RH  037%=      5-min Rain = 0
KES1 150005Z 10007KT 34/17 A3002 RMK A01 T03370169  RH  037%=      5-min Rain = 0
KES1 150006Z 11008KT 34/17 A3002 RMK A01 T03370173  RH  038%=      5-min Rain = 0
KES1 150007Z 10007KT 34/17 A3002 RMK A01 T03370174  RH  038%=      5-min Rain = 0
KES1 150008Z 11006KT 34/17 A3002 RMK A01 T03360173  RH  038%=      5-min Rain = 0
KES1 150009Z 10005KT 34/18 A3002 RMK A01 T03360175  RH  038%=      5-min Rain = 0
KES1 150010Z 10004KT 34/17 A3002 RMK A01 T03370173  RH  038%=      5-min Rain = 0
KES1 150011Z 10004KT 34/17 A3002 RMK A01 T03380172  RH  037%=      5-min Rain = 0
KES1 150012Z 10007KT 34/18 A3002 RMK A01 T03390177  RH  038%=      5-min Rain = 0
KES1 150013Z 11007KT 34/18 A3002 RMK A01 T03390179  RH  039%=      5-min Rain = 0
KES1 150014Z 12007KT 34/18 A3002 RMK A01 T03380177  RH  039%=      5-min Rain = 0
KES1 150015Z 13008KT 34/18 A3002 RMK A01 T03360178  RH  039%=      5-min Rain = 0
KES1 150016Z 12006KT 34/18 A3002 RMK A01 T03350179  RH  039%=      5-min Rain = 0
KES1 150017Z 12005KT 34/18 A3002 RMK A01 T03350179  RH  040%=      5-min Rain = 0
KES1 150018Z 14007G13KT 33/18 A3002 RMK A01 T03340177  RH  039%=      5-min Rain = 0
KES1 150019Z 12009G16KT 33/18 A3002 RMK A01 T03340177  RH  039%=      5-min Rain = 0
KES1 150020Z 10007KT 33/18 A3002 RMK A01 T03340178  RH  039%=      5-min Rain = 0
KES1 150021Z 09008KT 33/18 A3002 RMK A01 T03340177  RH  039%=      5-min Rain = 0
KES1 150022Z 11009KT 33/18 A3002 RMK A01 T03340178  RH  039%=      5-min Rain = 0
KES1 150023Z 10009KT 33/18 A3002 RMK A01 T03340177  RH  039%=      5-min Rain = 0
KES1 150024Z 11009KT 33/18 A3002 RMK A01 T03330177  RH  039%=      5-min Rain = 0
KES1 150025Z 11008KT 33/18 A3002 RMK A01 T03330177  RH  039%=      5-min Rain = 0
KES1 150026Z 13007KT 33/18 A3002 RMK A01 T03320177  RH  040%=      5-min Rain = 0
KES1 150027Z 11009KT 33/18 A3002 RMK A01 T03320177  RH  040%=      5-min Rain = 0
KES1 150028Z 10009KT 33/18 A3002 RMK A01 T03320177  RH  040%=      5-min Rain = 0
KES1 150029Z 10009KT 33/18 A3002 RMK A01 T03320177  RH  040%=      5-min Rain = 0
KES1 150030Z 10010KT 33/18 A3002 RMK A01 T03320175  RH  039%=      5-min Rain = 0
KES1 150031Z 10008KT 33/18 A3002 RMK A01 T03320175  RH  039%=      5-min Rain = 0
KES1 150032Z 10009KT 33/18 A3002 RMK A01 T03310175  RH  039%=      5-min Rain = 0
KES1 150033Z 11009KT 33/18 A3002 RMK A01 T03310175  RH  039%=      5-min Rain = 0
KES1 150034Z 10009KT 33/17 A3002 RMK A01 T03300173  RH  039%=      5-min Rain = 0
KES1 150035Z 10008KT 33/17 A3002 RMK A01 T03300173  RH  039%=      5-min Rain = 0
KES1 150036Z 10007KT 33/18 A3002 RMK A01 T03300175  RH  040%=      5-min Rain = 0
KES1 150037Z 10009KT 33/17 A3002 RMK A01 T03300173  RH  039%=      5-min Rain = 0
KES1 150038Z 11010KT 33/17 A3002 RMK A01 T03300171  RH  039%=      5-min Rain = 0
KES1 150039Z 11009KT 33/17 A3002 RMK A01 T03290171  RH  039%=      5-min Rain = 0
KES1 150040Z 12009KT 33/17 A3002 RMK A01 T03290172  RH  039%=      5-min Rain = 0
KES1 150041Z 11009KT 33/17 A3002 RMK A01 T03290169  RH  038%=      5-min Rain = 0
KES1 150042Z 11008KT 33/17 A3002 RMK A01 T03290170  RH  039%=      5-min Rain = 0
KES1 150043Z 11008KT 33/17 A3002 RMK A01 T03290170  RH  039%=      5-min Rain = 0
KES1 150044Z 11007KT 33/17 A3002 RMK A01 T03290171  RH  039%=      5-min Rain = 0
KES1 150045Z 10007KT 33/17 A3002 RMK A01 T03280170  RH  039%=      5-min Rain = 0
KES1 150046Z 12006KT 33/17 A3002 RMK A01 T03280171  RH  039%=      5-min Rain = 0
KES1 150047Z 12007KT 33/17 A3002 RMK A01 T03280170  RH  039%=      5-min Rain = 0
KES1 150048Z 12006KT 33/17 A3002 RMK A01 T03280170  RH  039%=      5-min Rain = 0
KES1 150049Z 10007KT 33/17 A3002 RMK A01 T03270171  RH  039%=      5-min Rain = 0
KES1 150050Z 11008KT 33/17 A3002 RMK A01 T03270169  RH  039%=      5-min Rain = 0
KES1 150051Z 10008KT 33/17 A3002 RMK A01 T03270170  RH  039%=      5-min Rain = 0
KES1 150052Z 11007KT 33/17 A3002 RMK A01 T03260170  RH  039%=      5-min Rain = 0
KES1 150053Z 11006KT 33/17 A3003 RMK A01 T03260171  RH  040%=      5-min Rain = 0
KES1 150054Z 10006KT 33/17 A3003 RMK A01 T03250172  RH  040%=      5-min Rain = 0
KES1 150055Z 11007KT 33/17 A3003 RMK A01 T03250172  RH  040%=      5-min Rain = 0
KES1 150056Z 11006KT 33/17 A3003 RMK A01 T03250171  RH  040%=      5-min Rain = 0
KES1 150057Z 10008KT 33/17 A3003 RMK A01 T03250171  RH  040%=      5-min Rain = 0
KES1 150058Z 11006KT 32/17 A3003 RMK A01 T03240171  RH  040%=      5-min Rain = 0
KES1 150059Z 11006KT 32/17 A3003 RMK A01 T03240172  RH  040%=      5-min Rain = 0
KES1 150100Z 11007KT 32/17 A3003 RMK A01 T03230172  RH  041%=      5-min Rain = 0
KES1 150101Z 10007KT 32/17 A3003 RMK A01 T03220172  RH  041%=      5-min Rain = 0
KES1 150102Z 10006KT 32/17 A3003 RMK A01 T03220173  RH  041%=      5-min Rain = 0
KES1 150103Z 10007KT 32/17 A3003 RMK A01 T03210174  RH  041%=      5-min Rain = 0
KES1 150104Z 10007KT 32/17 A3003 RMK A01 T03210174  RH  042%=      5-min Rain = 0
KES1 150105Z 10007KT 32/18 A3003 RMK A01 T03210175  RH  042%=      5-min Rain = 0
KES1 150106Z 11006KT 32/18 A3003 RMK A01 T03210176  RH  042%=      5-min Rain = 0
KES1 150107Z 11005KT 32/18 A3003 RMK A01 T03210177  RH  042%=      5-min Rain = 0
KES1 150108Z 11007KT 32/18 A3003 RMK A01 T03200177  RH  043%=      5-min Rain = 0
KES1 150109Z 11007KT 32/18 A3003 RMK A01 T03200177  RH  043%=      5-min Rain = 0
KES1 150110Z 11007KT 32/18 A3003 RMK A01 T03190177  RH  043%=      5-min Rain = 0
KES1 150111Z 11006KT 32/18 A3003 RMK A01 T03200178  RH  043%=      5-min Rain = 0
KES1 150112Z 11006KT 32/18 A3003 RMK A01 T03190179  RH  043%=      5-min Rain = 0
KES1 150113Z 11005KT 32/18 A3003 RMK A01 T03180179  RH  043%=      5-min Rain = 0
KES1 150114Z 11005KT 32/18 A3003 RMK A01 T03180179  RH  044%=      5-min Rain = 0
KES1 150115Z 11005KT 32/18 A3003 RMK A01 T03170179  RH  044%=      5-min Rain = 0
KES1 150116Z 11005KT 32/18 A3003 RMK A01 T03160180  RH  044%=      5-min Rain = 0
KES1 150117Z 11005KT 32/18 A3003 RMK A01 T03150180  RH  044%=      5-min Rain = 0
KES1 150118Z 11005KT 31/18 A3003 RMK A01 T03140180  RH  045%=      5-min Rain = 0
KES1 150119Z 11005KT 31/18 A3003 RMK A01 T03140181  RH  045%=      5-min Rain = 0
KES1 150120Z 11007KT 31/18 A3003 RMK A01 T03130181  RH  045%=      5-min Rain = 0
KES1 150121Z 11006KT 31/18 A3003 RMK A01 T03130181  RH  046%=      5-min Rain = 0
KES1 150122Z 11005KT 31/18 A3003 RMK A01 T03120181  RH  046%=      5-min Rain = 0
KES1 150123Z 11005KT 31/18 A3003 RMK A01 T03110182  RH  046%=      5-min Rain = 0
KES1 150124Z 11005KT 31/18 A3003 RMK A01 T03110183  RH  046%=      5-min Rain = 0
KES1 150125Z 11006KT 31/18 A3003 RMK A01 T03100182  RH  046%=      5-min Rain = 0
KES1 150126Z 11006KT 31/18 A3003 RMK A01 T03100182  RH  046%=      5-min Rain = 0
KES1 150127Z 11006KT 31/18 A3003 RMK A01 T03100182  RH  047%=      5-min Rain = 0
KES1 150128Z 11006KT 31/18 A3003 RMK A01 T03100182  RH  047%=      5-min Rain = 0
KES1 150129Z 11006KT 31/18 A3003 RMK A01 T03100183  RH  047%=      5-min Rain = 0
KES1 150130Z 12006KT 31/18 A3003 RMK A01 T03090183  RH  047%=      5-min Rain = 0
KES1 150131Z 11005KT 31/18 A3003 RMK A01 T03080183  RH  047%=      5-min Rain = 0
KES1 150132Z 12005KT 31/18 A3004 RMK A01 T03070183  RH  048%=      5-min Rain = 0
KES1 150133Z 12006KT 31/18 A3004 RMK A01 T03070183  RH  048%=      5-min Rain = 0
KES1 150134Z 12006KT 31/18 A3004 RMK A01 T03070184  RH  048%=      5-min Rain = 0
KES1 150135Z 12005KT 31/18 A3004 RMK A01 T03060184  RH  048%=      5-min Rain = 0
KES1 150136Z 12006KT 31/18 A3004 RMK A01 T03060184  RH  048%=      5-min Rain = 0
KES1 150137Z 12006KT 31/18 A3004 RMK A01 T03050184  RH  049%=      5-min Rain = 0
KES1 150138Z 12006KT 30/19 A3004 RMK A01 T03040185  RH  049%=      5-min Rain = 0
KES1 150139Z 12006KT 30/18 A3004 RMK A01 T03040184  RH  049%=      5-min Rain = 0
KES1 150140Z 11005KT 30/19 A3004 RMK A01 T03040185  RH  049%=      5-min Rain = 0
KES1 150141Z 12005KT 30/19 A3004 RMK A01 T03040185  RH  049%=      5-min Rain = 0
KES1 150142Z 12005KT 30/19 A3004 RMK A01 T03040185  RH  049%=      5-min Rain = 0
KES1 150143Z 12005KT 30/19 A3004 RMK A01 T03030185  RH  049%=      5-min Rain = 0
KES1 150144Z 12005KT 30/19 A3004 RMK A01 T03020185  RH  050%=      5-min Rain = 0
KES1 150145Z 12005KT 30/19 A3004 RMK A01 T03010185  RH  050%=      5-min Rain = 0
KES1 150146Z 12005KT 30/19 A3004 RMK A01 T03010186  RH  050%=      5-min Rain = 0
KES1 150147Z 12005KT 30/19 A3004 RMK A01 T03010186  RH  050%=      5-min Rain = 0
KES1 150148Z 12006KT 30/19 A3004 RMK A01 T03000186  RH  050%=      5-min Rain = 0
KES1 150149Z 12006KT 30/19 A3004 RMK A01 T02990186  RH  051%=      5-min Rain = 0
KES1 150150Z 12006KT 30/19 A3004 RMK A01 T02990186  RH  051%=      5-min Rain = 0
KES1 150151Z 12006KT 30/19 A3004 RMK A01 T02990185  RH  050%=      5-min Rain = 0
KES1 150152Z 12006KT 30/19 A3004 RMK A01 T03000185  RH  050%=      5-min Rain = 0
KES1 150153Z 12006KT 30/19 A3004 RMK A01 T03000185  RH  050%=      5-min Rain = 0
KES1 150154Z 11006KT 30/19 A3004 RMK A01 T03000186  RH  050%=      5-min Rain = 0
KES1 150155Z 11005KT 30/19 A3004 RMK A01 T03000185  RH  050%=      5-min Rain = 0
KES1 150156Z 12005KT 30/19 A3005 RMK A01 T03000185  RH  050%=      5-min Rain = 0
KES1 150157Z 12006KT 30/19 A3005 RMK A01 T03000185  RH  050%=      5-min Rain = 0
KES1 150158Z 11006KT 30/19 A3005 RMK A01 T02990186  RH  050%=      5-min Rain = 0
KES1 150159Z 12006KT 30/19 A3005 RMK A01 T02990185  RH  050%=      5-min Rain = 0
KES1 150200Z 11006KT 30/19 A3005 RMK A01 T02990185  RH  050%=      5-min Rain = 0
KES1 150201Z 11006KT 30/19 A3005 RMK A01 T02990185  RH  050%=      5-min Rain = 0
KES1 150202Z 11006KT 30/19 A3005 RMK A01 T02990185  RH  050%=      5-min Rain = 0
KES1 150203Z 12005KT 30/19 A3005 RMK A01 T02990185  RH  051%=      5-min Rain = 0
KES1 150204Z 11005KT 30/19 A3005 RMK A01 T02990187  RH  051%=      5-min Rain = 0
KES1 150205Z 12005KT 30/19 A3005 RMK A01 T02980187  RH  051%=      5-min Rain = 0
KES1 150206Z 12005KT 30/19 A3005 RMK A01 T02970187  RH  052%=      5-min Rain = 0
KES1 150207Z 12005KT 30/19 A3005 RMK A01 T02960188  RH  052%=      5-min Rain = 0
KES1 150208Z 12005KT 30/19 A3005 RMK A01 T02950188  RH  053%=      5-min Rain = 0
KES1 150209Z 12005KT 30/19 A3005 RMK A01 T02950189  RH  053%=      5-min Rain = 0
KES1 150210Z 11006KT 30/19 A3005 RMK A01 T02950189  RH  053%=      5-min Rain = 0
KES1 150211Z 12006KT 29/19 A3005 RMK A01 T02940189  RH  053%=      5-min Rain = 0
KES1 150212Z 11006KT 29/19 A3005 RMK A01 T02940189  RH  053%=      5-min Rain = 0
KES1 150213Z 11007KT 29/19 A3005 RMK A01 T02940188  RH  053%=      5-min Rain = 0
KES1 150214Z 11007KT 29/19 A3005 RMK A01 T02940187  RH  053%=      5-min Rain = 0
KES1 150215Z 11008KT 29/19 A3005 RMK A01 T02940185  RH  052%=      5-min Rain = 0
KES1 150216Z 11007KT 30/19 A3005 RMK A01 T02950186  RH  052%=      5-min Rain = 0
KES1 150217Z 11006KT 30/19 A3005 RMK A01 T02950185  RH  052%=      5-min Rain = 0
KES1 150218Z 11007KT 30/19 A3006 RMK A01 T02950185  RH  052%=      5-min Rain = 0
KES1 150219Z 11007KT 30/18 A3006 RMK A01 T02950184  RH  051%=      5-min Rain = 0
KES1 150220Z 11008KT 30/18 A3006 RMK A01 T02950183  RH  051%=      5-min Rain = 0
KES1 150221Z 11007KT 30/18 A3006 RMK A01 T02950182  RH  050%=      5-min Rain = 0
KES1 150222Z 12007KT 30/18 A3006 RMK A01 T02960183  RH  051%=      5-min Rain = 0
KES1 150223Z 12007KT 30/18 A3006 RMK A01 T02950182  RH  051%=      5-min Rain = 0
KES1 150224Z 11007KT 30/18 A3006 RMK A01 T02960182  RH  050%=      5-min Rain = 0
KES1 150225Z 11007KT 30/18 A3006 RMK A01 T02950181  RH  050%=      5-min Rain = 0
KES1 150226Z 11008KT 30/18 A3006 RMK A01 T02960180  RH  050%=      5-min Rain = 0
KES1 150227Z 11007KT 30/18 A3006 RMK A01 T02960179  RH  049%=      5-min Rain = 0
KES1 150228Z 11007KT 30/18 A3006 RMK A01 T02960180  RH  050%=      5-min Rain = 0
KES1 150229Z 11008KT 30/18 A3006 RMK A01 T02970181  RH  050%=      5-min Rain = 0
KES1 150230Z 11007KT 30/18 A3006 RMK A01 T02960180  RH  049%=      5-min Rain = 0
KES1 150231Z 11007KT 30/18 A3006 RMK A01 T02960179  RH  049%=      5-min Rain = 0
KES1 150232Z 10009KT 30/18 A3006 RMK A01 T02960178  RH  049%=      5-min Rain = 0
KES1 150233Z 11008KT 30/18 A3006 RMK A01 T02960178  RH  049%=      5-min Rain = 0
KES1 150234Z 10008KT 30/18 A3006 RMK A01 T02960178  RH  049%=      5-min Rain = 0
KES1 150235Z 10008KT 30/18 A3006 RMK A01 T02960178  RH  049%=      5-min Rain = 0
KES1 150236Z 11008KT 30/18 A3006 RMK A01 T02970177  RH  049%=      5-min Rain = 0
KES1 150237Z 11007KT 30/18 A3007 RMK A01 T02960178  RH  049%=      5-min Rain = 0
KES1 150238Z 12007KT 30/18 A3007 RMK A01 T02960178  RH  049%=      5-min Rain = 0
KES1 150239Z 12006KT 30/18 A3007 RMK A01 T02950178  RH  049%=      5-min Rain = 0
KES1 150240Z 12006KT 30/18 A3007 RMK A01 T02950178  RH  049%=      5-min Rain = 0
KES1 150241Z 12005KT 29/18 A3007 RMK A01 T02940179  RH  050%=      5-min Rain = 0
KES1 150242Z 11006KT 29/18 A3007 RMK A01 T02930180  RH  051%=      5-min Rain = 0
KES1 150243Z 11006KT 29/18 A3007 RMK A01 T02910180  RH  051%=      5-min Rain = 0
KES1 150244Z 12006KT 29/18 A3007 RMK A01 T02900181  RH  052%=      5-min Rain = 0
KES1 150245Z 11006KT 29/18 A3007 RMK A01 T02890182  RH  052%=      5-min Rain = 0
KES1 150246Z 11007KT 29/18 A3007 RMK A01 T02890182  RH  053%=      5-min Rain = 0
KES1 150247Z 11007KT 29/18 A3007 RMK A01 T02890182  RH  053%=      5-min Rain = 0
KES1 150248Z 11007KT 29/18 A3007 RMK A01 T02880182  RH  053%=      5-min Rain = 0
KES1 150249Z 11007KT 29/18 A3007 RMK A01 T02880182  RH  053%=      5-min Rain = 0
KES1 150250Z 10007KT 29/18 A3007 RMK A01 T02880182  RH  053%=      5-min Rain = 0
KES1 150251Z 10008KT 29/18 A3007 RMK A01 T02880182  RH  053%=      5-min Rain = 0
KES1 150252Z 10008KT 29/18 A3007 RMK A01 T02880181  RH  052%=      5-min Rain = 0
KES1 150253Z 10008KT 29/18 A3007 RMK A01 T02880181  RH  052%=      5-min Rain = 0
KES1 150254Z 10007KT 29/18 A3007 RMK A01 T02890181  RH  052%=      5-min Rain = 0
KES1 150255Z 10007KT 29/18 A3007 RMK A01 T02890181  RH  052%=      5-min Rain = 0
KES1 150256Z 10008KT 29/18 A3007 RMK A01 T02890181  RH  052%=      5-min Rain = 0
KES1 150257Z 11008KT 29/18 A3007 RMK A01 T02890180  RH  052%=      5-min Rain = 0
KES1 150258Z 10008KT 29/18 A3007 RMK A01 T02900181  RH  052%=      5-min Rain = 0
KES1 150259Z 10009KT 29/18 A3007 RMK A01 T02900181  RH  052%=      5-min Rain = 0
KES1 150300Z 10009KT 29/18 A3007 RMK A01 T02900180  RH  051%=      5-min Rain = 0
KES1 150301Z 10008KT 29/18 A3007 RMK A01 T02910180  RH  051%=      5-min Rain = 0
KES1 150302Z 10009KT 29/18 A3007 RMK A01 T02910180  RH  051%=      5-min Rain = 0
KES1 150303Z 10008KT 29/18 A3007 RMK A01 T02910180  RH  051%=      5-min Rain = 0
KES1 150304Z 10008KT 29/18 A3007 RMK A01 T02910180  RH  051%=      5-min Rain = 0
KES1 150305Z 10009KT 29/18 A3007 RMK A01 T02910179  RH  051%=      5-min Rain = 0
KES1 150306Z 10009KT 29/18 A3007 RMK A01 T02910179  RH  051%=      5-min Rain = 0
KES1 150307Z 10008KT 29/18 A3007 RMK A01 T02910179  RH  051%=      5-min Rain = 0
KES1 150308Z 10008KT 29/18 A3007 RMK A01 T02910179  RH  051%=      5-min Rain = 0
KES1 150309Z 11008KT 29/18 A3007 RMK A01 T02910178  RH  051%=      5-min Rain = 0
KES1 150310Z 10008KT 29/18 A3007 RMK A01 T02920178  RH  050%=      5-min Rain = 0
KES1 150311Z 10008KT 29/18 A3007 RMK A01 T02920178  RH  050%=      5-min Rain = 0
KES1 150312Z 10008KT 29/18 A3007 RMK A01 T02920179  RH  051%=      5-min Rain = 0
KES1 150313Z 10008KT 29/18 A3007 RMK A01 T02910179  RH  051%=      5-min Rain = 0
KES1 150314Z 10008KT 29/18 A3007 RMK A01 T02910179  RH  051%=      5-min Rain = 0
KES1 150315Z 10008KT 29/18 A3007 RMK A01 T02910179  RH  051%=      5-min Rain = 0
KES1 150316Z 10008KT 29/18 A3008 RMK A01 T02910178  RH  051%=      5-min Rain = 0
KES1 150317Z 10008KT 29/18 A3008 RMK A01 T02910178  RH  051%=      5-min Rain = 0
KES1 150318Z 11008KT 29/18 A3008 RMK A01 T02910179  RH  051%=      5-min Rain = 0
KES1 150319Z 11008KT 29/18 A3008 RMK A01 T02910179  RH  051%=      5-min Rain = 0
KES1 150320Z 11008KT 29/18 A3008 RMK A01 T02900179  RH  051%=      5-min Rain = 0
KES1 150321Z 11008KT 29/18 A3008 RMK A01 T02900180  RH  051%=      5-min Rain = 0
KES1 150322Z 11008KT 29/18 A3008 RMK A01 T02900180  RH  051%=      5-min Rain = 0
KES1 150323Z 10007KT 29/18 A3008 RMK A01 T02890180  RH  052%=      5-min Rain = 0
KES1 150324Z 10008KT 29/18 A3008 RMK A01 T02890180  RH  052%=      5-min Rain = 0
KES1 150325Z 10009KT 29/18 A3008 RMK A01 T02890179  RH  052%=      5-min Rain = 0
KES1 150326Z 10009KT 29/18 A3008 RMK A01 T02890178  RH  051%=      5-min Rain = 0
KES1 150327Z 10009KT 29/18 A3008 RMK A01 T02900178  RH  051%=      5-min Rain = 0
KES1 150328Z 10009KT 29/18 A3008 RMK A01 T02910178  RH  051%=      5-min Rain = 0
KES1 150329Z 10009KT 29/18 A3008 RMK A01 T02910178  RH  051%=      5-min Rain = 0
KES1 150330Z 10008KT 29/18 A3008 RMK A01 T02910179  RH  051%=      5-min Rain = 0
KES1 150331Z 11008KT 29/18 A3008 RMK A01 T02910179  RH  051%=      5-min Rain = 0
KES1 150332Z 11008KT 29/18 A3008 RMK A01 T02910178  RH  051%=      5-min Rain = 0
KES1 150333Z 10007KT 29/18 A3008 RMK A01 T02910179  RH  051%=      5-min Rain = 0
KES1 150334Z 10008KT 29/18 A3008 RMK A01 T02900178  RH  051%=      5-min Rain = 0
KES1 150335Z 10008KT 29/18 A3008 RMK A01 T02900178  RH  051%=      5-min Rain = 0
KES1 150336Z 11008KT 29/18 A3008 RMK A01 T02900178  RH  051%=      5-min Rain = 0
KES1 150337Z 12007KT 29/18 A3009 RMK A01 T02910178  RH  051%=      5-min Rain = 0
KES1 150338Z 13007KT 29/18 A3009 RMK A01 T02910178  RH  051%=      5-min Rain = 0
KES1 150339Z 11007KT 29/18 A3009 RMK A01 T02900179  RH  051%=      5-min Rain = 0
KES1 150340Z 11006KT 29/18 A3009 RMK A01 T02890179  RH  051%=      5-min Rain = 0
KES1 150341Z 11006KT 29/18 A3009 RMK A01 T02890180  RH  052%=      5-min Rain = 0
KES1 150342Z 11006KT 29/18 A3009 RMK A01 T02880180  RH  052%=      5-min Rain = 0
KES1 150343Z 11006KT 29/18 A3009 RMK A01 T02870180  RH  053%=      5-min Rain = 0
KES1 150344Z 11006KT 29/18 A3009 RMK A01 T02860179  RH  053%=      5-min Rain = 0
KES1 150345Z 12006KT 29/18 A3009 RMK A01 T02860180  RH  053%=      5-min Rain = 0
KES1 150346Z 13007KT 29/18 A3009 RMK A01 T02850180  RH  053%=      5-min Rain = 0
KES1 150347Z 12007KT 29/18 A3009 RMK A01 T02850180  RH  053%=      5-min Rain = 0
KES1 150348Z 12007KT 29/18 A3009 RMK A01 T02850181  RH  053%=      5-min Rain = 0
KES1 150349Z 12007KT 29/18 A3009 RMK A01 T02850181  RH  053%=      5-min Rain = 0
KES1 150350Z 12006KT 28/18 A3009 RMK A01 T02840182  RH  054%=      5-min Rain = 0
KES1 150351Z 12007KT 28/18 A3009 RMK A01 T02830182  RH  054%=      5-min Rain = 0
KES1 150352Z 11006KT 28/18 A3009 RMK A01 T02830182  RH  055%=      5-min Rain = 0
KES1 150353Z 12008KT 28/18 A3009 RMK A01 T02820182  RH  055%=      5-min Rain = 0
KES1 150354Z 11008KT 28/18 A3009 RMK A01 T02810182  RH  055%=      5-min Rain = 0
KES1 150355Z 11007KT 28/18 A3009 RMK A01 T02810183  RH  055%=      5-min Rain = 0
KES1 150356Z 11008KT 28/18 A3009 RMK A01 T02810183  RH  055%=      5-min Rain = 0
KES1 150357Z 11008KT 28/18 A3009 RMK A01 T02820183  RH  055%=      5-min Rain = 0
KES1 150358Z 11008KT 28/18 A3009 RMK A01 T02820183  RH  055%=      5-min Rain = 0
KES1 150359Z 11008KT 28/18 A3009 RMK A01 T02820183  RH  055%=      5-min Rain = 0
KES1 150400Z 10009KT 28/18 A3009 RMK A01 T02820182  RH  054%=      5-min Rain = 0
KES1 150401Z 11007KT 28/18 A3009 RMK A01 T02830182  RH  054%=      5-min Rain = 0
KES1 150402Z 11008KT 28/18 A3009 RMK A01 T02830182  RH  054%=      5-min Rain = 0
KES1 150403Z 11007KT 28/18 A3009 RMK A01 T02830182  RH  054%=      5-min Rain = 0
KES1 150404Z 10007KT 28/18 A3009 RMK A01 T02830182  RH  054%=      5-min Rain = 0
KES1 150405Z 10007KT 28/18 A3009 RMK A01 T02820182  RH  054%=      5-min Rain = 0
KES1 150406Z 10007KT 28/18 A3009 RMK A01 T02820181  RH  054%=      5-min Rain = 0
KES1 150407Z 11007KT 28/18 A3009 RMK A01 T02820181  RH  054%=      5-min Rain = 0
KES1 150408Z 11007KT 28/18 A3009 RMK A01 T02820180  RH  054%=      5-min Rain = 0
KES1 150409Z 11007KT 28/18 A3009 RMK A01 T02820180  RH  054%=      5-min Rain = 0
KES1 150410Z 11006KT 28/18 A3009 RMK A01 T02820180  RH  054%=      5-min Rain = 0
KES1 150411Z 11006KT 28/18 A3009 RMK A01 T02820180  RH  054%=      5-min Rain = 0
KES1 150412Z 11007KT 28/18 A3009 RMK A01 T02820179  RH  054%=      5-min Rain = 0
KES1 150413Z 11006KT 28/18 A3009 RMK A01 T02830178  RH  053%=      5-min Rain = 0
KES1 150414Z 11006KT 28/18 A3009 RMK A01 T02830179  RH  053%=      5-min Rain = 0
KES1 150415Z 11007KT 28/18 A3009 RMK A01 T02830180  RH  053%=      5-min Rain = 0
KES1 150416Z 11006KT 28/18 A3009 RMK A01 T02830179  RH  053%=      5-min Rain = 0
KES1 150417Z 11007KT 28/18 A3009 RMK A01 T02820180  RH  054%=      5-min Rain = 0
KES1 150418Z 11007KT 28/18 A3009 RMK A01 T02820179  RH  054%=      5-min Rain = 0
KES1 150419Z 11007KT 28/18 A3009 RMK A01 T02820180  RH  054%=      5-min Rain = 0
KES1 150420Z 11007KT 28/18 A3009 RMK A01 T02810179  RH  054%=      5-min Rain = 0
KES1 150421Z 11007KT 28/18 A3009 RMK A01 T02810179  RH  054%=      5-min Rain = 0
KES1 150422Z 11006KT 28/18 A3009 RMK A01 T02810179  RH  054%=      5-min Rain = 0
KES1 150423Z 11006KT 28/18 A3009 RMK A01 T02810179  RH  054%=      5-min Rain = 0
KES1 150424Z 11006KT 28/18 A3009 RMK A01 T02810180  RH  054%=      5-min Rain = 0
KES1 150425Z 11007KT 28/18 A3009 RMK A01 T02800180  RH  054%=      5-min Rain = 0
KES1 150426Z 11006KT 28/18 A3009 RMK A01 T02800180  RH  055%=      5-min Rain = 0
KES1 150427Z 11006KT 28/18 A3009 RMK A01 T02790179  RH  055%=      5-min Rain = 0
KES1 150428Z 11006KT 28/18 A3009 RMK A01 T02790180  RH  055%=      5-min Rain = 0
KES1 150429Z 11006KT 28/18 A3009 RMK A01 T02790180  RH  055%=      5-min Rain = 0
KES1 150430Z 11007KT 28/18 A3009 RMK A01 T02790180  RH  055%=      5-min Rain = 0
KES1 150431Z 11007KT 28/18 A3009 RMK A01 T02790181  RH  055%=      5-min Rain = 0
KES1 150432Z 11007KT 28/18 A3009 RMK A01 T02780180  RH  055%=      5-min Rain = 0
KES1 150433Z 11007KT 28/18 A3009 RMK A01 T02780180  RH  055%=      5-min Rain = 0
KES1 150434Z 11008KT 28/18 A3009 RMK A01 T02780180  RH  055%=      5-min Rain = 0
KES1 150435Z 11007KT 28/18 A3009 RMK A01 T02780179  RH  055%=      5-min Rain = 0
KES1 150436Z 11007KT 28/18 A3009 RMK A01 T02780178  RH  054%=      5-min Rain = 0
KES1 150437Z 11007KT 28/18 A3009 RMK A01 T02800177  RH  054%=      5-min Rain = 0
KES1 150438Z 11008KT 28/18 A3009 RMK A01 T02810177  RH  053%=      5-min Rain = 0
KES1 150439Z 11007KT 28/18 A3009 RMK A01 T02810177  RH  053%=      5-min Rain = 0
KES1 150440Z 11007KT 28/18 A3009 RMK A01 T02810177  RH  053%=      5-min Rain = 0
KES1 150441Z 12007KT 28/18 A3009 RMK A01 T02810176  RH  053%=      5-min Rain = 0
KES1 150442Z 12008KT 28/18 A3009 RMK A01 T02830176  RH  052%=      5-min Rain = 0
KES1 150443Z 11007KT 28/18 A3009 RMK A01 T02840177  RH  052%=      5-min Rain = 0
KES1 150444Z 12008KT 28/18 A3009 RMK A01 T02840178  RH  052%=      5-min Rain = 0
KES1 150445Z 11008KT 28/18 A3009 RMK A01 T02840178  RH  052%=      5-min Rain = 0
KES1 150446Z 12007KT 28/18 A3009 RMK A01 T02840179  RH  053%=      5-min Rain = 0
KES1 150447Z 12008KT 28/18 A3009 RMK A01 T02840179  RH  053%=      5-min Rain = 0
KES1 150448Z 11007KT 28/18 A3009 RMK A01 T02830179  RH  053%=      5-min Rain = 0
KES1 150449Z 12008KT 28/18 A3009 RMK A01 T02820179  RH  053%=      5-min Rain = 0
KES1 150450Z 12006KT 28/18 A3009 RMK A01 T02820179  RH  054%=      5-min Rain = 0
KES1 150451Z 13006KT 28/18 A3009 RMK A01 T02820180  RH  054%=      5-min Rain = 0
KES1 150452Z 12006KT 28/18 A3009 RMK A01 T02820180  RH  054%=      5-min Rain = 0
KES1 150453Z 12007KT 28/18 A3009 RMK A01 T02810181  RH  055%=      5-min Rain = 0
KES1 150454Z 12006KT 28/18 A3009 RMK A01 T02800181  RH  055%=      5-min Rain = 0
KES1 150455Z 12006KT 28/18 A3009 RMK A01 T02790181  RH  055%=      5-min Rain = 0
KES1 150456Z 12007KT 28/18 A3009 RMK A01 T02790182  RH  056%=      5-min Rain = 0
KES1 150457Z 12007KT 28/18 A3009 RMK A01 T02780182  RH  056%=      5-min Rain = 0
KES1 150458Z 12007KT 28/18 A3009 RMK A01 T02780182  RH  056%=      5-min Rain = 0
KES1 150459Z 12007KT 28/18 A3009 RMK A01 T02770182  RH  056%=      5-min Rain = 0

Page generated in 0.1212 seconds.